<?xml version="1.0" encoding="UTF-8" standalone="no" ?>
<gpx xmlns="http://www.topografix.com/GPX/1/1" xmlns:xsi="http://www.w3.org/2001/XMLSchema-instance" xsi:schemaLocation="http://www.topografix.com/GPX/1/1 http://www.topografix.com/GPX/1/1/gpx.xsd" version="1.1" creator="VisuGPX - https://www.visugpx.com">
  <metadata>
    <name>Clermont-Ferrand - Massat - Pau par François</name>
    <desc><![CDATA[Trajet effectué par François sur la "Diagonale du vide" en aout 2020]]></desc>
  </metadata>
  <trk>
    <name><![CDATA[route119]]></name>
    <trkseg>
      <trkpt lat="43.09451" lon="0.70178">
        <ele>371.2</ele>
        <time>2020-09-01T06:08:59Z</time>
      </trkpt>
      <trkpt lat="43.09436" lon="0.70048">
        <ele>369</ele>
        <time>2020-09-01T06:09:29Z</time>
      </trkpt>
      <trkpt lat="43.09428" lon="0.6991">
        <ele>368.6</ele>
        <time>2020-09-01T06:09:59Z</time>
      </trkpt>
      <trkpt lat="43.09432" lon="0.6978">
        <ele>368.4</ele>
        <time>2020-09-01T06:10:29Z</time>
      </trkpt>
      <trkpt lat="43.09432" lon="0.69654">
        <ele>368.2</ele>
        <time>2020-09-01T06:11:32Z</time>
      </trkpt>
      <trkpt lat="43.09435" lon="0.69521">
        <ele>368.1</ele>
        <time>2020-09-01T06:12:07Z</time>
      </trkpt>
      <trkpt lat="43.09436" lon="0.69378">
        <ele>368.5</ele>
        <time>2020-09-01T06:12:42Z</time>
      </trkpt>
      <trkpt lat="43.09439" lon="0.69234">
        <ele>368.9</ele>
        <time>2020-09-01T06:13:17Z</time>
      </trkpt>
      <trkpt lat="43.09454" lon="0.691">
        <ele>369.5</ele>
        <time>2020-09-01T06:13:57Z</time>
      </trkpt>
      <trkpt lat="43.09442" lon="0.6897">
        <ele>370</ele>
        <time>2020-09-01T06:14:27Z</time>
      </trkpt>
      <trkpt lat="43.09444" lon="0.68841">
        <ele>370.6</ele>
        <time>2020-09-01T06:14:57Z</time>
      </trkpt>
      <trkpt lat="43.09444" lon="0.68706">
        <ele>371</ele>
        <time>2020-09-01T06:15:27Z</time>
      </trkpt>
      <trkpt lat="43.09441" lon="0.68561">
        <ele>371.6</ele>
        <time>2020-09-01T06:16:02Z</time>
      </trkpt>
      <trkpt lat="43.09411" lon="0.68442">
        <ele>372</ele>
        <time>2020-09-01T06:16:27Z</time>
      </trkpt>
      <trkpt lat="43.09371" lon="0.68319">
        <ele>372.7</ele>
        <time>2020-09-01T06:16:57Z</time>
      </trkpt>
      <trkpt lat="43.09331" lon="0.68204">
        <ele>373.2</ele>
        <time>2020-09-01T06:17:22Z</time>
      </trkpt>
      <trkpt lat="43.09285" lon="0.68077">
        <ele>373.7</ele>
        <time>2020-09-01T06:17:52Z</time>
      </trkpt>
      <trkpt lat="43.09243" lon="0.67949">
        <ele>374.2</ele>
        <time>2020-09-01T06:18:23Z</time>
      </trkpt>
      <trkpt lat="43.09197" lon="0.67819">
        <ele>374.8</ele>
        <time>2020-09-01T06:18:53Z</time>
      </trkpt>
      <trkpt lat="43.09151" lon="0.67685">
        <ele>375.7</ele>
        <time>2020-09-01T06:19:23Z</time>
      </trkpt>
      <trkpt lat="43.09112" lon="0.67569">
        <ele>377.8</ele>
        <time>2020-09-01T06:19:48Z</time>
      </trkpt>
      <trkpt lat="43.09068" lon="0.67443">
        <ele>378.5</ele>
        <time>2020-09-01T06:20:18Z</time>
      </trkpt>
      <trkpt lat="43.09022" lon="0.67314">
        <ele>379.6</ele>
        <time>2020-09-01T06:20:48Z</time>
      </trkpt>
      <trkpt lat="43.08977" lon="0.67187">
        <ele>380.6</ele>
        <time>2020-09-01T06:21:18Z</time>
      </trkpt>
      <trkpt lat="43.08931" lon="0.67056">
        <ele>381.7</ele>
        <time>2020-09-01T06:21:48Z</time>
      </trkpt>
      <trkpt lat="43.08887" lon="0.66935">
        <ele>382.2</ele>
        <time>2020-09-01T06:22:18Z</time>
      </trkpt>
      <trkpt lat="43.08849" lon="0.66818">
        <ele>382.6</ele>
        <time>2020-09-01T06:22:43Z</time>
      </trkpt>
      <trkpt lat="43.08801" lon="0.66691">
        <ele>383.5</ele>
        <time>2020-09-01T06:23:13Z</time>
      </trkpt>
      <trkpt lat="43.08758" lon="0.66562">
        <ele>384.3</ele>
        <time>2020-09-01T06:23:43Z</time>
      </trkpt>
      <trkpt lat="43.08712" lon="0.66436">
        <ele>384.8</ele>
        <time>2020-09-01T06:24:13Z</time>
      </trkpt>
      <trkpt lat="43.08671" lon="0.66314">
        <ele>385.4</ele>
        <time>2020-09-01T06:24:43Z</time>
      </trkpt>
      <trkpt lat="43.08629" lon="0.66193">
        <ele>385.7</ele>
        <time>2020-09-01T06:25:13Z</time>
      </trkpt>
      <trkpt lat="43.08586" lon="0.66069">
        <ele>386</ele>
        <time>2020-09-01T06:25:43Z</time>
      </trkpt>
      <trkpt lat="43.08545" lon="0.6595">
        <ele>386.4</ele>
        <time>2020-09-01T06:26:13Z</time>
      </trkpt>
      <trkpt lat="43.08501" lon="0.65824">
        <ele>386.9</ele>
        <time>2020-09-01T06:26:43Z</time>
      </trkpt>
      <trkpt lat="43.08458" lon="0.65701">
        <ele>387.6</ele>
        <time>2020-09-01T06:27:13Z</time>
      </trkpt>
      <trkpt lat="43.08415" lon="0.65579">
        <ele>388.3</ele>
        <time>2020-09-01T06:27:43Z</time>
      </trkpt>
      <trkpt lat="43.08372" lon="0.65454">
        <ele>389</ele>
        <time>2020-09-01T06:28:13Z</time>
      </trkpt>
      <trkpt lat="43.08326" lon="0.65326">
        <ele>389.7</ele>
        <time>2020-09-01T06:28:43Z</time>
      </trkpt>
      <trkpt lat="43.08298" lon="0.65193">
        <ele>390.3</ele>
        <time>2020-09-01T06:29:13Z</time>
      </trkpt>
      <trkpt lat="43.08281" lon="0.65055">
        <ele>391</ele>
        <time>2020-09-01T06:29:43Z</time>
      </trkpt>
      <trkpt lat="43.08232" lon="0.64928">
        <ele>392.2</ele>
        <time>2020-09-01T06:30:13Z</time>
      </trkpt>
      <trkpt lat="43.08214" lon="0.64784">
        <ele>392.8</ele>
        <time>2020-09-01T06:30:43Z</time>
      </trkpt>
      <trkpt lat="43.08196" lon="0.64646">
        <ele>393.4</ele>
        <time>2020-09-01T06:31:13Z</time>
      </trkpt>
      <trkpt lat="43.08178" lon="0.64504">
        <ele>393.9</ele>
        <time>2020-09-01T06:31:43Z</time>
      </trkpt>
      <trkpt lat="43.08159" lon="0.64363">
        <ele>394.4</ele>
        <time>2020-09-01T06:32:12Z</time>
      </trkpt>
      <trkpt lat="43.08141" lon="0.64222">
        <ele>394.9</ele>
        <time>2020-09-01T06:32:42Z</time>
      </trkpt>
      <trkpt lat="43.08123" lon="0.64076">
        <ele>395.9</ele>
        <time>2020-09-01T06:33:12Z</time>
      </trkpt>
      <trkpt lat="43.08106" lon="0.63944">
        <ele>396.1</ele>
        <time>2020-09-01T06:33:42Z</time>
      </trkpt>
      <trkpt lat="43.08088" lon="0.63806">
        <ele>396.3</ele>
        <time>2020-09-01T06:34:12Z</time>
      </trkpt>
      <trkpt lat="43.08071" lon="0.63668">
        <ele>396.9</ele>
        <time>2020-09-01T06:34:42Z</time>
      </trkpt>
      <trkpt lat="43.08057" lon="0.63537">
        <ele>397.8</ele>
        <time>2020-09-01T06:35:12Z</time>
      </trkpt>
      <trkpt lat="43.08039" lon="0.63406">
        <ele>398.7</ele>
        <time>2020-09-01T06:35:42Z</time>
      </trkpt>
      <trkpt lat="43.08022" lon="0.63272">
        <ele>399.6</ele>
        <time>2020-09-01T06:36:12Z</time>
      </trkpt>
      <trkpt lat="43.0801" lon="0.6314">
        <ele>400.6</ele>
        <time>2020-09-01T06:36:42Z</time>
      </trkpt>
      <trkpt lat="43.08086" lon="0.63034">
        <ele>402.4</ele>
        <time>2020-09-01T06:37:12Z</time>
      </trkpt>
      <trkpt lat="43.08175" lon="0.62961">
        <ele>402.5</ele>
        <time>2020-09-01T06:37:37Z</time>
      </trkpt>
      <trkpt lat="43.0826" lon="0.62892">
        <ele>402.6</ele>
        <time>2020-09-01T06:38:02Z</time>
      </trkpt>
      <trkpt lat="43.08346" lon="0.62822">
        <ele>402.7</ele>
        <time>2020-09-01T06:38:27Z</time>
      </trkpt>
      <trkpt lat="43.08436" lon="0.62744">
        <ele>402.9</ele>
        <time>2020-09-01T06:38:52Z</time>
      </trkpt>
      <trkpt lat="43.08505" lon="0.62639">
        <ele>403.1</ele>
        <time>2020-09-01T06:39:17Z</time>
      </trkpt>
      <trkpt lat="43.0855" lon="0.62525">
        <ele>403.3</ele>
        <time>2020-09-01T06:39:42Z</time>
      </trkpt>
      <trkpt lat="43.0859" lon="0.62407">
        <ele>403.9</ele>
        <time>2020-09-01T06:40:07Z</time>
      </trkpt>
      <trkpt lat="43.0863" lon="0.62286">
        <ele>404.3</ele>
        <time>2020-09-01T06:40:32Z</time>
      </trkpt>
      <trkpt lat="43.08666" lon="0.62169">
        <ele>404.5</ele>
        <time>2020-09-01T06:40:57Z</time>
      </trkpt>
      <trkpt lat="43.08691" lon="0.62049">
        <ele>404.8</ele>
        <time>2020-09-01T06:41:22Z</time>
      </trkpt>
      <trkpt lat="43.0874" lon="0.61923">
        <ele>405.1</ele>
        <time>2020-09-01T06:41:52Z</time>
      </trkpt>
      <trkpt lat="43.08749" lon="0.61793">
        <ele>405.6</ele>
        <time>2020-09-01T06:42:27Z</time>
      </trkpt>
      <trkpt lat="43.08708" lon="0.61664">
        <ele>406.3</ele>
        <time>2020-09-01T06:42:57Z</time>
      </trkpt>
      <trkpt lat="43.08663" lon="0.61548">
        <ele>406.9</ele>
        <time>2020-09-01T06:43:27Z</time>
      </trkpt>
      <trkpt lat="43.0863" lon="0.61433">
        <ele>407.5</ele>
        <time>2020-09-01T06:43:57Z</time>
      </trkpt>
      <trkpt lat="43.08592" lon="0.61311">
        <ele>408</ele>
        <time>2020-09-01T06:44:27Z</time>
      </trkpt>
      <trkpt lat="43.08546" lon="0.61193">
        <ele>408.5</ele>
        <time>2020-09-01T06:44:57Z</time>
      </trkpt>
      <trkpt lat="43.08497" lon="0.61084">
        <ele>409</ele>
        <time>2020-09-01T06:45:27Z</time>
      </trkpt>
      <trkpt lat="43.08429" lon="0.60991">
        <ele>409.4</ele>
        <time>2020-09-01T06:45:57Z</time>
      </trkpt>
      <trkpt lat="43.08377" lon="0.60878">
        <ele>410</ele>
        <time>2020-09-01T06:46:27Z</time>
      </trkpt>
      <trkpt lat="43.0833" lon="0.6076">
        <ele>410.9</ele>
        <time>2020-09-01T06:46:57Z</time>
      </trkpt>
      <trkpt lat="43.08283" lon="0.60637">
        <ele>411.8</ele>
        <time>2020-09-01T06:47:27Z</time>
      </trkpt>
      <trkpt lat="43.08237" lon="0.60513">
        <ele>412.7</ele>
        <time>2020-09-01T06:47:57Z</time>
      </trkpt>
      <trkpt lat="43.08184" lon="0.6039">
        <ele>414.1</ele>
        <time>2020-09-01T06:48:27Z</time>
      </trkpt>
      <trkpt lat="43.08115" lon="0.60281">
        <ele>415.5</ele>
        <time>2020-09-01T06:48:52Z</time>
      </trkpt>
      <trkpt lat="43.08043" lon="0.6017">
        <ele>415.9</ele>
        <time>2020-09-01T06:49:17Z</time>
      </trkpt>
      <trkpt lat="43.07985" lon="0.6007">
        <ele>416.1</ele>
        <time>2020-09-01T06:49:42Z</time>
      </trkpt>
      <trkpt lat="43.07959" lon="0.5995">
        <ele>416.2</ele>
        <time>2020-09-01T06:50:12Z</time>
      </trkpt>
      <trkpt lat="43.07932" lon="0.59824">
        <ele>416.7</ele>
        <time>2020-09-01T06:50:37Z</time>
      </trkpt>
      <trkpt lat="43.07917" lon="0.59683">
        <ele>416.9</ele>
        <time>2020-09-01T06:51:07Z</time>
      </trkpt>
      <trkpt lat="43.07901" lon="0.59561">
        <ele>417</ele>
        <time>2020-09-01T06:51:37Z</time>
      </trkpt>
      <trkpt lat="43.07894" lon="0.59437">
        <ele>417.7</ele>
        <time>2020-09-01T06:52:17Z</time>
      </trkpt>
      <trkpt lat="43.07865" lon="0.59315">
        <ele>418.9</ele>
        <time>2020-09-01T06:52:42Z</time>
      </trkpt>
      <trkpt lat="43.07821" lon="0.59191">
        <ele>419.3</ele>
        <time>2020-09-01T06:53:07Z</time>
      </trkpt>
      <trkpt lat="43.07771" lon="0.59082">
        <ele>420</ele>
        <time>2020-09-01T06:53:32Z</time>
      </trkpt>
      <trkpt lat="43.07742" lon="0.58957">
        <ele>420.1</ele>
        <time>2020-09-01T06:54:02Z</time>
      </trkpt>
      <trkpt lat="43.07727" lon="0.58831">
        <ele>420.3</ele>
        <time>2020-09-01T06:54:27Z</time>
      </trkpt>
      <trkpt lat="43.07732" lon="0.58696">
        <ele>420.3</ele>
        <time>2020-09-01T06:54:52Z</time>
      </trkpt>
      <trkpt lat="43.07765" lon="0.58568">
        <ele>420.3</ele>
        <time>2020-09-01T06:55:17Z</time>
      </trkpt>
      <trkpt lat="43.07769" lon="0.58434">
        <ele>420.4</ele>
        <time>2020-09-01T06:55:47Z</time>
      </trkpt>
      <trkpt lat="43.07755" lon="0.58296">
        <ele>421</ele>
        <time>2020-09-01T06:56:12Z</time>
      </trkpt>
      <trkpt lat="43.07821" lon="0.58182">
        <ele>420.4</ele>
        <time>2020-09-01T06:56:27Z</time>
      </trkpt>
      <trkpt lat="43.07879" lon="0.58082">
        <ele>420.3</ele>
        <time>2020-09-01T06:56:42Z</time>
      </trkpt>
      <trkpt lat="43.07946" lon="0.5797">
        <ele>419.3</ele>
        <time>2020-09-01T06:57:02Z</time>
      </trkpt>
      <trkpt lat="43.08012" lon="0.57861">
        <ele>416.6</ele>
        <time>2020-09-01T06:57:22Z</time>
      </trkpt>
      <trkpt lat="43.08076" lon="0.57758">
        <ele>414.4</ele>
        <time>2020-09-01T06:57:42Z</time>
      </trkpt>
      <trkpt lat="43.08137" lon="0.57659">
        <ele>414.2</ele>
        <time>2020-09-01T06:58:02Z</time>
      </trkpt>
      <trkpt lat="43.08207" lon="0.57557">
        <ele>414.3</ele>
        <time>2020-09-01T06:58:27Z</time>
      </trkpt>
      <trkpt lat="43.08304" lon="0.57526">
        <ele>415.2</ele>
        <time>2020-09-01T06:59:07Z</time>
      </trkpt>
      <trkpt lat="43.08401" lon="0.57464">
        <ele>418.1</ele>
        <time>2020-09-01T06:59:31Z</time>
      </trkpt>
      <trkpt lat="43.08469" lon="0.57375">
        <ele>418.7</ele>
        <time>2020-09-01T07:00:09Z</time>
      </trkpt>
      <trkpt lat="43.08529" lon="0.5727">
        <ele>422.9</ele>
        <time>2020-09-01T07:01:12Z</time>
      </trkpt>
      <trkpt lat="43.0844" lon="0.57212">
        <ele>432.3</ele>
        <time>2020-09-01T07:05:32Z</time>
      </trkpt>
      <trkpt lat="43.08449" lon="0.57082">
        <ele>442.5</ele>
        <time>2020-09-01T07:08:26Z</time>
      </trkpt>
      <trkpt lat="43.0849" lon="0.56957">
        <ele>445.7</ele>
        <time>2020-09-01T07:09:07Z</time>
      </trkpt>
      <trkpt lat="43.08551" lon="0.56852">
        <ele>447.6</ele>
        <time>2020-09-01T07:09:42Z</time>
      </trkpt>
      <trkpt lat="43.08578" lon="0.56708">
        <ele>449.6</ele>
        <time>2020-09-01T07:10:17Z</time>
      </trkpt>
      <trkpt lat="43.08589" lon="0.56581">
        <ele>452</ele>
        <time>2020-09-01T07:10:42Z</time>
      </trkpt>
      <trkpt lat="43.08576" lon="0.56436">
        <ele>453.7</ele>
        <time>2020-09-01T07:11:07Z</time>
      </trkpt>
      <trkpt lat="43.08552" lon="0.56305">
        <ele>455</ele>
        <time>2020-09-01T07:11:38Z</time>
      </trkpt>
      <trkpt lat="43.08523" lon="0.56176">
        <ele>456.7</ele>
        <time>2020-09-01T07:12:08Z</time>
      </trkpt>
      <trkpt lat="43.08532" lon="0.56034">
        <ele>459.2</ele>
        <time>2020-09-01T07:12:38Z</time>
      </trkpt>
      <trkpt lat="43.08549" lon="0.55913">
        <ele>462.5</ele>
        <time>2020-09-01T07:13:03Z</time>
      </trkpt>
      <trkpt lat="43.0857" lon="0.55771">
        <ele>463.4</ele>
        <time>2020-09-01T07:13:38Z</time>
      </trkpt>
      <trkpt lat="43.08584" lon="0.55632">
        <ele>464.6</ele>
        <time>2020-09-01T07:14:08Z</time>
      </trkpt>
      <trkpt lat="43.08603" lon="0.55494">
        <ele>466</ele>
        <time>2020-09-01T07:14:43Z</time>
      </trkpt>
      <trkpt lat="43.08625" lon="0.55363">
        <ele>467.4</ele>
        <time>2020-09-01T07:15:18Z</time>
      </trkpt>
      <trkpt lat="43.08645" lon="0.5524">
        <ele>469.2</ele>
        <time>2020-09-01T07:15:58Z</time>
      </trkpt>
      <trkpt lat="43.08667" lon="0.55105">
        <ele>471.1</ele>
        <time>2020-09-01T07:16:38Z</time>
      </trkpt>
      <trkpt lat="43.08681" lon="0.54979">
        <ele>472.9</ele>
        <time>2020-09-01T07:17:18Z</time>
      </trkpt>
      <trkpt lat="43.08706" lon="0.54856">
        <ele>474.7</ele>
        <time>2020-09-01T07:17:58Z</time>
      </trkpt>
      <trkpt lat="43.08722" lon="0.54723">
        <ele>477</ele>
        <time>2020-09-01T07:18:46Z</time>
      </trkpt>
      <trkpt lat="43.08738" lon="0.54595">
        <ele>478.8</ele>
        <time>2020-09-01T07:19:27Z</time>
      </trkpt>
      <trkpt lat="43.08754" lon="0.54471">
        <ele>480.8</ele>
        <time>2020-09-01T07:20:07Z</time>
      </trkpt>
      <trkpt lat="43.08781" lon="0.54331">
        <ele>482.7</ele>
        <time>2020-09-01T07:20:42Z</time>
      </trkpt>
      <trkpt lat="43.08805" lon="0.54198">
        <ele>484.2</ele>
        <time>2020-09-01T07:21:12Z</time>
      </trkpt>
      <trkpt lat="43.08822" lon="0.54063">
        <ele>485.7</ele>
        <time>2020-09-01T07:21:42Z</time>
      </trkpt>
      <trkpt lat="43.08838" lon="0.53929">
        <ele>487.8</ele>
        <time>2020-09-01T07:22:23Z</time>
      </trkpt>
      <trkpt lat="43.08859" lon="0.53798">
        <ele>490.6</ele>
        <time>2020-09-01T07:23:17Z</time>
      </trkpt>
      <trkpt lat="43.08878" lon="0.53667">
        <ele>494</ele>
        <time>2020-09-01T07:24:17Z</time>
      </trkpt>
      <trkpt lat="43.08897" lon="0.53536">
        <ele>497.8</ele>
        <time>2020-09-01T07:25:17Z</time>
      </trkpt>
      <trkpt lat="43.08915" lon="0.53404">
        <ele>501</ele>
        <time>2020-09-01T07:26:09Z</time>
      </trkpt>
      <trkpt lat="43.08932" lon="0.53274">
        <ele>504.1</ele>
        <time>2020-09-01T07:26:58Z</time>
      </trkpt>
      <trkpt lat="43.08952" lon="0.53141">
        <ele>507.1</ele>
        <time>2020-09-01T07:27:49Z</time>
      </trkpt>
      <trkpt lat="43.08972" lon="0.53015">
        <ele>509.7</ele>
        <time>2020-09-01T07:28:34Z</time>
      </trkpt>
      <trkpt lat="43.08991" lon="0.52885">
        <ele>511.9</ele>
        <time>2020-09-01T07:29:14Z</time>
      </trkpt>
      <trkpt lat="43.09011" lon="0.5275">
        <ele>514.3</ele>
        <time>2020-09-01T07:29:44Z</time>
      </trkpt>
      <trkpt lat="43.09027" lon="0.52627">
        <ele>516.9</ele>
        <time>2020-09-01T07:30:04Z</time>
      </trkpt>
      <trkpt lat="43.09048" lon="0.52504">
        <ele>517.7</ele>
        <time>2020-09-01T07:30:39Z</time>
      </trkpt>
      <trkpt lat="43.09055" lon="0.52381">
        <ele>519.5</ele>
        <time>2020-09-01T07:31:25Z</time>
      </trkpt>
      <trkpt lat="43.09052" lon="0.52255">
        <ele>521.6</ele>
        <time>2020-09-01T07:32:05Z</time>
      </trkpt>
      <trkpt lat="43.09056" lon="0.52121">
        <ele>523.9</ele>
        <time>2020-09-01T07:32:51Z</time>
      </trkpt>
      <trkpt lat="43.0906" lon="0.51993">
        <ele>526</ele>
        <time>2020-09-01T07:33:31Z</time>
      </trkpt>
      <trkpt lat="43.09069" lon="0.51861">
        <ele>528.2</ele>
        <time>2020-09-01T07:34:11Z</time>
      </trkpt>
      <trkpt lat="43.09082" lon="0.5173">
        <ele>530.2</ele>
        <time>2020-09-01T07:34:51Z</time>
      </trkpt>
      <trkpt lat="43.09094" lon="0.51594">
        <ele>532.3</ele>
        <time>2020-09-01T07:35:31Z</time>
      </trkpt>
      <trkpt lat="43.09105" lon="0.51463">
        <ele>533.9</ele>
        <time>2020-09-01T07:36:01Z</time>
      </trkpt>
      <trkpt lat="43.09122" lon="0.51322">
        <ele>537.5</ele>
        <time>2020-09-01T07:36:26Z</time>
      </trkpt>
      <trkpt lat="43.09132" lon="0.51162">
        <ele>538.5</ele>
        <time>2020-09-01T07:36:46Z</time>
      </trkpt>
      <trkpt lat="43.09138" lon="0.51008">
        <ele>538.9</ele>
        <time>2020-09-01T07:37:06Z</time>
      </trkpt>
      <trkpt lat="43.09148" lon="0.50875">
        <ele>544.8</ele>
        <time>2020-09-01T07:37:46Z</time>
      </trkpt>
      <trkpt lat="43.09157" lon="0.50752">
        <ele>550.4</ele>
        <time>2020-09-01T07:38:31Z</time>
      </trkpt>
      <trkpt lat="43.09167" lon="0.50629">
        <ele>552.8</ele>
        <time>2020-09-01T07:39:06Z</time>
      </trkpt>
      <trkpt lat="43.09193" lon="0.50488">
        <ele>554.5</ele>
        <time>2020-09-01T07:39:36Z</time>
      </trkpt>
      <trkpt lat="43.09232" lon="0.50348">
        <ele>556.6</ele>
        <time>2020-09-01T07:40:01Z</time>
      </trkpt>
      <trkpt lat="43.09271" lon="0.50216">
        <ele>556.8</ele>
        <time>2020-09-01T07:40:21Z</time>
      </trkpt>
      <trkpt lat="43.09307" lon="0.50091">
        <ele>556.2</ele>
        <time>2020-09-01T07:40:41Z</time>
      </trkpt>
      <trkpt lat="43.09344" lon="0.49969">
        <ele>557.5</ele>
        <time>2020-09-01T07:41:06Z</time>
      </trkpt>
      <trkpt lat="43.0938" lon="0.49839">
        <ele>558</ele>
        <time>2020-09-01T07:41:41Z</time>
      </trkpt>
      <trkpt lat="43.09417" lon="0.49709">
        <ele>559.8</ele>
        <time>2020-09-01T07:42:21Z</time>
      </trkpt>
      <trkpt lat="43.09454" lon="0.49582">
        <ele>561.6</ele>
        <time>2020-09-01T07:42:51Z</time>
      </trkpt>
      <trkpt lat="43.09489" lon="0.49462">
        <ele>564.8</ele>
        <time>2020-09-01T07:43:16Z</time>
      </trkpt>
      <trkpt lat="43.09528" lon="0.49334">
        <ele>565.4</ele>
        <time>2020-09-01T07:43:41Z</time>
      </trkpt>
      <trkpt lat="43.09564" lon="0.49207">
        <ele>565.7</ele>
        <time>2020-09-01T07:44:06Z</time>
      </trkpt>
      <trkpt lat="43.09602" lon="0.4908">
        <ele>565.9</ele>
        <time>2020-09-01T07:44:36Z</time>
      </trkpt>
      <trkpt lat="43.09636" lon="0.4896">
        <ele>566.3</ele>
        <time>2020-09-01T07:45:06Z</time>
      </trkpt>
      <trkpt lat="43.0967" lon="0.48843">
        <ele>567.1</ele>
        <time>2020-09-01T07:45:41Z</time>
      </trkpt>
      <trkpt lat="43.0971" lon="0.48712">
        <ele>568</ele>
        <time>2020-09-01T07:46:16Z</time>
      </trkpt>
      <trkpt lat="43.09749" lon="0.48579">
        <ele>569.1</ele>
        <time>2020-09-01T07:46:41Z</time>
      </trkpt>
      <trkpt lat="43.09744" lon="0.48453">
        <ele>569.4</ele>
        <time>2020-09-01T07:47:11Z</time>
      </trkpt>
      <trkpt lat="43.09653" lon="0.4844">
        <ele>569.6</ele>
        <time>2020-09-01T07:48:14Z</time>
      </trkpt>
      <trkpt lat="43.0967" lon="0.48301">
        <ele>570.3</ele>
        <time>2020-09-01T07:49:06Z</time>
      </trkpt>
      <trkpt lat="43.09703" lon="0.48159">
        <ele>571</ele>
        <time>2020-09-01T07:49:31Z</time>
      </trkpt>
      <trkpt lat="43.09731" lon="0.48013">
        <ele>571.1</ele>
        <time>2020-09-01T07:49:56Z</time>
      </trkpt>
      <trkpt lat="43.09757" lon="0.47875">
        <ele>571.2</ele>
        <time>2020-09-01T07:50:21Z</time>
      </trkpt>
      <trkpt lat="43.09782" lon="0.47737">
        <ele>571.5</ele>
        <time>2020-09-01T07:50:46Z</time>
      </trkpt>
      <trkpt lat="43.09803" lon="0.47599">
        <ele>571.2</ele>
        <time>2020-09-01T07:51:11Z</time>
      </trkpt>
      <trkpt lat="43.09823" lon="0.47473">
        <ele>571</ele>
        <time>2020-09-01T07:51:36Z</time>
      </trkpt>
      <trkpt lat="43.09839" lon="0.47341">
        <ele>571.1</ele>
        <time>2020-09-01T07:52:06Z</time>
      </trkpt>
      <trkpt lat="43.09859" lon="0.47215">
        <ele>571.3</ele>
        <time>2020-09-01T07:52:36Z</time>
      </trkpt>
      <trkpt lat="43.0988" lon="0.47083">
        <ele>571.6</ele>
        <time>2020-09-01T07:53:06Z</time>
      </trkpt>
      <trkpt lat="43.09892" lon="0.46956">
        <ele>572.1</ele>
        <time>2020-09-01T07:53:31Z</time>
      </trkpt>
      <trkpt lat="43.09908" lon="0.46832">
        <ele>572.4</ele>
        <time>2020-09-01T07:53:56Z</time>
      </trkpt>
      <trkpt lat="43.09921" lon="0.46703">
        <ele>572.5</ele>
        <time>2020-09-01T07:54:20Z</time>
      </trkpt>
      <trkpt lat="43.0994" lon="0.46557">
        <ele>572.4</ele>
        <time>2020-09-01T07:54:50Z</time>
      </trkpt>
      <trkpt lat="43.09951" lon="0.46412">
        <ele>572.5</ele>
        <time>2020-09-01T07:55:20Z</time>
      </trkpt>
      <trkpt lat="43.09962" lon="0.46286">
        <ele>572.7</ele>
        <time>2020-09-01T07:55:45Z</time>
      </trkpt>
      <trkpt lat="43.09981" lon="0.46147">
        <ele>572.9</ele>
        <time>2020-09-01T07:56:10Z</time>
      </trkpt>
      <trkpt lat="43.10004" lon="0.46001">
        <ele>572.9</ele>
        <time>2020-09-01T07:56:35Z</time>
      </trkpt>
      <trkpt lat="43.10021" lon="0.45877">
        <ele>572.9</ele>
        <time>2020-09-01T07:57:00Z</time>
      </trkpt>
      <trkpt lat="43.1005" lon="0.45751">
        <ele>572.9</ele>
        <time>2020-09-01T07:57:30Z</time>
      </trkpt>
      <trkpt lat="43.10079" lon="0.45633">
        <ele>573</ele>
        <time>2020-09-01T07:57:55Z</time>
      </trkpt>
      <trkpt lat="43.10111" lon="0.45494">
        <ele>573.1</ele>
        <time>2020-09-01T07:58:25Z</time>
      </trkpt>
      <trkpt lat="43.1013" lon="0.45357">
        <ele>573.1</ele>
        <time>2020-09-01T07:58:55Z</time>
      </trkpt>
      <trkpt lat="43.10135" lon="0.45217">
        <ele>573.1</ele>
        <time>2020-09-01T07:59:25Z</time>
      </trkpt>
      <trkpt lat="43.10145" lon="0.45069">
        <ele>573</ele>
        <time>2020-09-01T07:59:55Z</time>
      </trkpt>
      <trkpt lat="43.10154" lon="0.44928">
        <ele>573</ele>
        <time>2020-09-01T08:00:25Z</time>
      </trkpt>
      <trkpt lat="43.10161" lon="0.44786">
        <ele>573</ele>
        <time>2020-09-01T08:00:55Z</time>
      </trkpt>
      <trkpt lat="43.10169" lon="0.44646">
        <ele>573.1</ele>
        <time>2020-09-01T08:01:25Z</time>
      </trkpt>
      <trkpt lat="43.10172" lon="0.44511">
        <ele>573.3</ele>
        <time>2020-09-01T08:01:55Z</time>
      </trkpt>
      <trkpt lat="43.10174" lon="0.44384">
        <ele>573.6</ele>
        <time>2020-09-01T08:02:25Z</time>
      </trkpt>
      <trkpt lat="43.10175" lon="0.44247">
        <ele>574.1</ele>
        <time>2020-09-01T08:02:55Z</time>
      </trkpt>
      <trkpt lat="43.10187" lon="0.44106">
        <ele>574.9</ele>
        <time>2020-09-01T08:03:30Z</time>
      </trkpt>
      <trkpt lat="43.10212" lon="0.43974">
        <ele>575.5</ele>
        <time>2020-09-01T08:04:05Z</time>
      </trkpt>
      <trkpt lat="43.10237" lon="0.43849">
        <ele>576.2</ele>
        <time>2020-09-01T08:04:40Z</time>
      </trkpt>
      <trkpt lat="43.10263" lon="0.43718">
        <ele>577.4</ele>
        <time>2020-09-01T08:05:20Z</time>
      </trkpt>
      <trkpt lat="43.10273" lon="0.43587">
        <ele>578.8</ele>
        <time>2020-09-01T08:06:06Z</time>
      </trkpt>
      <trkpt lat="43.10281" lon="0.43462">
        <ele>580.1</ele>
        <time>2020-09-01T08:06:47Z</time>
      </trkpt>
      <trkpt lat="43.10289" lon="0.43336">
        <ele>581.7</ele>
        <time>2020-09-01T08:07:27Z</time>
      </trkpt>
      <trkpt lat="43.10287" lon="0.43197">
        <ele>583.5</ele>
        <time>2020-09-01T08:08:13Z</time>
      </trkpt>
      <trkpt lat="43.10283" lon="0.43062">
        <ele>591</ele>
        <time>2020-09-01T08:16:25Z</time>
      </trkpt>
      <trkpt lat="43.10279" lon="0.42927">
        <ele>592.5</ele>
        <time>2020-09-01T08:16:55Z</time>
      </trkpt>
      <trkpt lat="43.1027" lon="0.42785">
        <ele>593.5</ele>
        <time>2020-09-01T08:17:25Z</time>
      </trkpt>
      <trkpt lat="43.10253" lon="0.42663">
        <ele>594.6</ele>
        <time>2020-09-01T08:17:50Z</time>
      </trkpt>
      <trkpt lat="43.10234" lon="0.42534">
        <ele>595.7</ele>
        <time>2020-09-01T08:18:15Z</time>
      </trkpt>
      <trkpt lat="43.10219" lon="0.424">
        <ele>596.1</ele>
        <time>2020-09-01T08:18:45Z</time>
      </trkpt>
      <trkpt lat="43.10199" lon="0.42268">
        <ele>596.4</ele>
        <time>2020-09-01T08:19:15Z</time>
      </trkpt>
      <trkpt lat="43.10177" lon="0.42127">
        <ele>597.2</ele>
        <time>2020-09-01T08:19:50Z</time>
      </trkpt>
      <trkpt lat="43.10163" lon="0.42005">
        <ele>597.9</ele>
        <time>2020-09-01T08:20:15Z</time>
      </trkpt>
      <trkpt lat="43.10137" lon="0.41872">
        <ele>598.6</ele>
        <time>2020-09-01T08:20:45Z</time>
      </trkpt>
      <trkpt lat="43.10092" lon="0.4175">
        <ele>599.2</ele>
        <time>2020-09-01T08:21:14Z</time>
      </trkpt>
      <trkpt lat="43.10038" lon="0.41625">
        <ele>601.4</ele>
        <time>2020-09-01T08:21:44Z</time>
      </trkpt>
      <trkpt lat="43.09997" lon="0.41499">
        <ele>602.6</ele>
        <time>2020-09-01T08:22:09Z</time>
      </trkpt>
      <trkpt lat="43.09964" lon="0.41379">
        <ele>603.4</ele>
        <time>2020-09-01T08:22:34Z</time>
      </trkpt>
      <trkpt lat="43.09924" lon="0.41265">
        <ele>604.3</ele>
        <time>2020-09-01T08:22:59Z</time>
      </trkpt>
      <trkpt lat="43.09889" lon="0.41147">
        <ele>605.7</ele>
        <time>2020-09-01T08:23:24Z</time>
      </trkpt>
      <trkpt lat="43.09853" lon="0.41028">
        <ele>606.9</ele>
        <time>2020-09-01T08:23:49Z</time>
      </trkpt>
      <trkpt lat="43.09816" lon="0.40914">
        <ele>607.4</ele>
        <time>2020-09-01T08:24:14Z</time>
      </trkpt>
      <trkpt lat="43.09781" lon="0.40788">
        <ele>608</ele>
        <time>2020-09-01T08:24:44Z</time>
      </trkpt>
      <trkpt lat="43.09739" lon="0.40658">
        <ele>608.7</ele>
        <time>2020-09-01T08:25:14Z</time>
      </trkpt>
      <trkpt lat="43.09701" lon="0.40526">
        <ele>609.2</ele>
        <time>2020-09-01T08:25:44Z</time>
      </trkpt>
      <trkpt lat="43.0966" lon="0.40396">
        <ele>609.7</ele>
        <time>2020-09-01T08:26:14Z</time>
      </trkpt>
      <trkpt lat="43.09622" lon="0.40273">
        <ele>610.3</ele>
        <time>2020-09-01T08:26:44Z</time>
      </trkpt>
      <trkpt lat="43.0958" lon="0.40141">
        <ele>611</ele>
        <time>2020-09-01T08:27:14Z</time>
      </trkpt>
      <trkpt lat="43.09542" lon="0.40024">
        <ele>611.9</ele>
        <time>2020-09-01T08:27:39Z</time>
      </trkpt>
      <trkpt lat="43.09497" lon="0.39894">
        <ele>613.8</ele>
        <time>2020-09-01T08:28:09Z</time>
      </trkpt>
      <trkpt lat="43.09433" lon="0.39782">
        <ele>615.8</ele>
        <time>2020-09-01T08:28:34Z</time>
      </trkpt>
      <trkpt lat="43.09391" lon="0.3967">
        <ele>617.2</ele>
        <time>2020-09-01T08:28:59Z</time>
      </trkpt>
      <trkpt lat="43.09347" lon="0.39545">
        <ele>617.9</ele>
        <time>2020-09-01T08:29:29Z</time>
      </trkpt>
      <trkpt lat="43.09302" lon="0.39427">
        <ele>618.6</ele>
        <time>2020-09-01T08:29:54Z</time>
      </trkpt>
      <trkpt lat="43.09266" lon="0.39294">
        <ele>619.9</ele>
        <time>2020-09-01T08:30:24Z</time>
      </trkpt>
      <trkpt lat="43.09228" lon="0.39159">
        <ele>620.8</ele>
        <time>2020-09-01T08:30:54Z</time>
      </trkpt>
      <trkpt lat="43.09226" lon="0.39028">
        <ele>623.3</ele>
        <time>2020-09-01T08:31:36Z</time>
      </trkpt>
      <trkpt lat="43.09169" lon="0.38921">
        <ele>623.6</ele>
        <time>2020-09-01T08:32:01Z</time>
      </trkpt>
      <trkpt lat="43.09143" lon="0.388">
        <ele>623.6</ele>
        <time>2020-09-01T08:32:26Z</time>
      </trkpt>
      <trkpt lat="43.09114" lon="0.38674">
        <ele>623.7</ele>
        <time>2020-09-01T08:32:56Z</time>
      </trkpt>
      <trkpt lat="43.09086" lon="0.3855">
        <ele>623.9</ele>
        <time>2020-09-01T08:33:26Z</time>
      </trkpt>
      <trkpt lat="43.09057" lon="0.38426">
        <ele>624.2</ele>
        <time>2020-09-01T08:33:56Z</time>
      </trkpt>
      <trkpt lat="43.09027" lon="0.38299">
        <ele>624.6</ele>
        <time>2020-09-01T08:34:26Z</time>
      </trkpt>
      <trkpt lat="43.08997" lon="0.38168">
        <ele>625.1</ele>
        <time>2020-09-01T08:34:56Z</time>
      </trkpt>
      <trkpt lat="43.08968" lon="0.38044">
        <ele>625.8</ele>
        <time>2020-09-01T08:35:26Z</time>
      </trkpt>
      <trkpt lat="43.08939" lon="0.37917">
        <ele>626.6</ele>
        <time>2020-09-01T08:35:56Z</time>
      </trkpt>
      <trkpt lat="43.0891" lon="0.37789">
        <ele>628.3</ele>
        <time>2020-09-01T08:36:21Z</time>
      </trkpt>
      <trkpt lat="43.08876" lon="0.37663">
        <ele>628.7</ele>
        <time>2020-09-01T08:36:46Z</time>
      </trkpt>
      <trkpt lat="43.08829" lon="0.37521">
        <ele>628.7</ele>
        <time>2020-09-01T08:37:11Z</time>
      </trkpt>
      <trkpt lat="43.08787" lon="0.37387">
        <ele>629.5</ele>
        <time>2020-09-01T08:37:36Z</time>
      </trkpt>
      <trkpt lat="43.08728" lon="0.37259">
        <ele>630.2</ele>
        <time>2020-09-01T08:38:01Z</time>
      </trkpt>
      <trkpt lat="43.08679" lon="0.37141">
        <ele>631.1</ele>
        <time>2020-09-01T08:38:26Z</time>
      </trkpt>
      <trkpt lat="43.08621" lon="0.37016">
        <ele>631.7</ele>
        <time>2020-09-01T08:38:56Z</time>
      </trkpt>
      <trkpt lat="43.08571" lon="0.36911">
        <ele>632.8</ele>
        <time>2020-09-01T08:39:21Z</time>
      </trkpt>
      <trkpt lat="43.0852" lon="0.36803">
        <ele>634.2</ele>
        <time>2020-09-01T08:39:46Z</time>
      </trkpt>
      <trkpt lat="43.08467" lon="0.36688">
        <ele>635.3</ele>
        <time>2020-09-01T08:40:11Z</time>
      </trkpt>
      <trkpt lat="43.08406" lon="0.36558">
        <ele>636.1</ele>
        <time>2020-09-01T08:40:36Z</time>
      </trkpt>
      <trkpt lat="43.08344" lon="0.3643">
        <ele>636.8</ele>
        <time>2020-09-01T08:41:01Z</time>
      </trkpt>
      <trkpt lat="43.08293" lon="0.36324">
        <ele>637</ele>
        <time>2020-09-01T08:41:21Z</time>
      </trkpt>
      <trkpt lat="43.08216" lon="0.36216">
        <ele>637.4</ele>
        <time>2020-09-01T08:41:46Z</time>
      </trkpt>
      <trkpt lat="43.08146" lon="0.36137">
        <ele>637.7</ele>
        <time>2020-09-01T08:42:06Z</time>
      </trkpt>
      <trkpt lat="43.08063" lon="0.36066">
        <ele>638.5</ele>
        <time>2020-09-01T08:42:26Z</time>
      </trkpt>
      <trkpt lat="43.08065" lon="0.35927">
        <ele>638.9</ele>
        <time>2020-09-01T08:42:56Z</time>
      </trkpt>
      <trkpt lat="43.08022" lon="0.3581">
        <ele>639.5</ele>
        <time>2020-09-01T08:43:31Z</time>
      </trkpt>
      <trkpt lat="43.08026" lon="0.35675">
        <ele>640.4</ele>
        <time>2020-09-01T08:44:11Z</time>
      </trkpt>
      <trkpt lat="43.08028" lon="0.35541">
        <ele>641.6</ele>
        <time>2020-09-01T08:44:51Z</time>
      </trkpt>
      <trkpt lat="43.08047" lon="0.35405">
        <ele>642.8</ele>
        <time>2020-09-01T08:45:26Z</time>
      </trkpt>
      <trkpt lat="43.08093" lon="0.3529">
        <ele>645.5</ele>
        <time>2020-09-01T08:45:51Z</time>
      </trkpt>
      <trkpt lat="43.08149" lon="0.35159">
        <ele>646.3</ele>
        <time>2020-09-01T08:46:11Z</time>
      </trkpt>
      <trkpt lat="43.08204" lon="0.35045">
        <ele>646.3</ele>
        <time>2020-09-01T08:46:26Z</time>
      </trkpt>
      <trkpt lat="43.08258" lon="0.34923">
        <ele>646.2</ele>
        <time>2020-09-01T08:46:41Z</time>
      </trkpt>
      <trkpt lat="43.08305" lon="0.34817">
        <ele>645.6</ele>
        <time>2020-09-01T08:46:56Z</time>
      </trkpt>
      <trkpt lat="43.08366" lon="0.34681">
        <ele>647.7</ele>
        <time>2020-09-01T08:47:15Z</time>
      </trkpt>
      <trkpt lat="43.08417" lon="0.34565">
        <ele>646.9</ele>
        <time>2020-09-01T08:47:30Z</time>
      </trkpt>
      <trkpt lat="43.08468" lon="0.34452">
        <ele>646.8</ele>
        <time>2020-09-01T08:47:45Z</time>
      </trkpt>
      <trkpt lat="43.08517" lon="0.34346">
        <ele>645.9</ele>
        <time>2020-09-01T08:48:00Z</time>
      </trkpt>
      <trkpt lat="43.08564" lon="0.34238">
        <ele>645.2</ele>
        <time>2020-09-01T08:48:15Z</time>
      </trkpt>
      <trkpt lat="43.08612" lon="0.3413">
        <ele>644.5</ele>
        <time>2020-09-01T08:48:30Z</time>
      </trkpt>
      <trkpt lat="43.0866" lon="0.34021">
        <ele>644</ele>
        <time>2020-09-01T08:48:45Z</time>
      </trkpt>
      <trkpt lat="43.08711" lon="0.33914">
        <ele>643.1</ele>
        <time>2020-09-01T08:49:00Z</time>
      </trkpt>
      <trkpt lat="43.08773" lon="0.3381">
        <ele>641.5</ele>
        <time>2020-09-01T08:49:15Z</time>
      </trkpt>
      <trkpt lat="43.08853" lon="0.33724">
        <ele>640.2</ele>
        <time>2020-09-01T08:49:30Z</time>
      </trkpt>
      <trkpt lat="43.08934" lon="0.33657">
        <ele>639.4</ele>
        <time>2020-09-01T08:49:45Z</time>
      </trkpt>
      <trkpt lat="43.09015" lon="0.33592">
        <ele>638.6</ele>
        <time>2020-09-01T08:50:00Z</time>
      </trkpt>
      <trkpt lat="43.09104" lon="0.33523">
        <ele>637.9</ele>
        <time>2020-09-01T08:50:15Z</time>
      </trkpt>
      <trkpt lat="43.09194" lon="0.33456">
        <ele>636</ele>
        <time>2020-09-01T08:50:30Z</time>
      </trkpt>
      <trkpt lat="43.0928" lon="0.33381">
        <ele>633.9</ele>
        <time>2020-09-01T08:50:45Z</time>
      </trkpt>
      <trkpt lat="43.09364" lon="0.33312">
        <ele>632.3</ele>
        <time>2020-09-01T08:51:00Z</time>
      </trkpt>
      <trkpt lat="43.09449" lon="0.33247">
        <ele>630</ele>
        <time>2020-09-01T08:51:15Z</time>
      </trkpt>
      <trkpt lat="43.09534" lon="0.33178">
        <ele>627</ele>
        <time>2020-09-01T08:51:30Z</time>
      </trkpt>
      <trkpt lat="43.09625" lon="0.33105">
        <ele>624</ele>
        <time>2020-09-01T08:51:45Z</time>
      </trkpt>
      <trkpt lat="43.09714" lon="0.33034">
        <ele>621.4</ele>
        <time>2020-09-01T08:52:00Z</time>
      </trkpt>
      <trkpt lat="43.09798" lon="0.32966">
        <ele>619</ele>
        <time>2020-09-01T08:52:15Z</time>
      </trkpt>
      <trkpt lat="43.09887" lon="0.32895">
        <ele>616.9</ele>
        <time>2020-09-01T08:52:30Z</time>
      </trkpt>
      <trkpt lat="43.09977" lon="0.32821">
        <ele>614.6</ele>
        <time>2020-09-01T08:52:45Z</time>
      </trkpt>
      <trkpt lat="43.10074" lon="0.32748">
        <ele>612.4</ele>
        <time>2020-09-01T08:53:00Z</time>
      </trkpt>
      <trkpt lat="43.10187" lon="0.32746">
        <ele>609.8</ele>
        <time>2020-09-01T08:53:15Z</time>
      </trkpt>
      <trkpt lat="43.10303" lon="0.32768">
        <ele>606.8</ele>
        <time>2020-09-01T08:53:30Z</time>
      </trkpt>
      <trkpt lat="43.10413" lon="0.32792">
        <ele>603.3</ele>
        <time>2020-09-01T08:53:45Z</time>
      </trkpt>
      <trkpt lat="43.10487" lon="0.3267">
        <ele>600.4</ele>
        <time>2020-09-01T08:54:05Z</time>
      </trkpt>
      <trkpt lat="43.10535" lon="0.32528">
        <ele>597.1</ele>
        <time>2020-09-01T08:54:25Z</time>
      </trkpt>
      <trkpt lat="43.10572" lon="0.32407">
        <ele>595</ele>
        <time>2020-09-01T08:54:45Z</time>
      </trkpt>
      <trkpt lat="43.10632" lon="0.32312">
        <ele>593</ele>
        <time>2020-09-01T08:55:00Z</time>
      </trkpt>
      <trkpt lat="43.10647" lon="0.32165">
        <ele>590.9</ele>
        <time>2020-09-01T08:55:15Z</time>
      </trkpt>
      <trkpt lat="43.10633" lon="0.32016">
        <ele>589.8</ele>
        <time>2020-09-01T08:55:30Z</time>
      </trkpt>
      <trkpt lat="43.10736" lon="0.31964">
        <ele>584.4</ele>
        <time>2020-09-01T08:55:45Z</time>
      </trkpt>
      <trkpt lat="43.10844" lon="0.31991">
        <ele>578.6</ele>
        <time>2020-09-01T08:56:00Z</time>
      </trkpt>
      <trkpt lat="43.10949" lon="0.32019">
        <ele>573.3</ele>
        <time>2020-09-01T08:56:15Z</time>
      </trkpt>
      <trkpt lat="43.11061" lon="0.32003">
        <ele>567.8</ele>
        <time>2020-09-01T08:56:30Z</time>
      </trkpt>
      <trkpt lat="43.11166" lon="0.32086">
        <ele>564.6</ele>
        <time>2020-09-01T08:56:45Z</time>
      </trkpt>
      <trkpt lat="43.11259" lon="0.32131">
        <ele>560.2</ele>
        <time>2020-09-01T08:57:00Z</time>
      </trkpt>
      <trkpt lat="43.11367" lon="0.3209">
        <ele>556</ele>
        <time>2020-09-01T08:57:15Z</time>
      </trkpt>
      <trkpt lat="43.11474" lon="0.32043">
        <ele>549.2</ele>
        <time>2020-09-01T08:57:30Z</time>
      </trkpt>
      <trkpt lat="43.11592" lon="0.31984">
        <ele>539.3</ele>
        <time>2020-09-01T08:57:45Z</time>
      </trkpt>
      <trkpt lat="43.11722" lon="0.31977">
        <ele>532.4</ele>
        <time>2020-09-01T08:58:00Z</time>
      </trkpt>
      <trkpt lat="43.11844" lon="0.31984">
        <ele>526.1</ele>
        <time>2020-09-01T08:58:15Z</time>
      </trkpt>
      <trkpt lat="43.11966" lon="0.3195">
        <ele>522.8</ele>
        <time>2020-09-01T08:58:30Z</time>
      </trkpt>
      <trkpt lat="43.12088" lon="0.31904">
        <ele>517.2</ele>
        <time>2020-09-01T08:58:45Z</time>
      </trkpt>
      <trkpt lat="43.12202" lon="0.31848">
        <ele>519.7</ele>
        <time>2020-09-01T08:59:00Z</time>
      </trkpt>
      <trkpt lat="43.12325" lon="0.3182">
        <ele>512.4</ele>
        <time>2020-09-01T08:59:15Z</time>
      </trkpt>
      <trkpt lat="43.12439" lon="0.31778">
        <ele>512</ele>
        <time>2020-09-01T08:59:30Z</time>
      </trkpt>
      <trkpt lat="43.12546" lon="0.31736">
        <ele>507.4</ele>
        <time>2020-09-01T08:59:45Z</time>
      </trkpt>
      <trkpt lat="43.12633" lon="0.31642">
        <ele>503.2</ele>
        <time>2020-09-01T09:00:00Z</time>
      </trkpt>
      <trkpt lat="43.12717" lon="0.31578">
        <ele>498</ele>
        <time>2020-09-01T09:00:16Z</time>
      </trkpt>
      <trkpt lat="43.12818" lon="0.31534">
        <ele>495.7</ele>
        <time>2020-09-01T09:00:31Z</time>
      </trkpt>
      <trkpt lat="43.12927" lon="0.31481">
        <ele>494.6</ele>
        <time>2020-09-01T09:00:46Z</time>
      </trkpt>
      <trkpt lat="43.13043" lon="0.31439">
        <ele>491.5</ele>
        <time>2020-09-01T09:01:01Z</time>
      </trkpt>
      <trkpt lat="43.13159" lon="0.31403">
        <ele>489.1</ele>
        <time>2020-09-01T09:01:16Z</time>
      </trkpt>
      <trkpt lat="43.13265" lon="0.3134">
        <ele>484.7</ele>
        <time>2020-09-01T09:01:31Z</time>
      </trkpt>
      <trkpt lat="43.13383" lon="0.31298">
        <ele>478.5</ele>
        <time>2020-09-01T09:01:46Z</time>
      </trkpt>
      <trkpt lat="43.13506" lon="0.31271">
        <ele>474.6</ele>
        <time>2020-09-01T09:02:01Z</time>
      </trkpt>
      <trkpt lat="43.13619" lon="0.31208">
        <ele>468.6</ele>
        <time>2020-09-01T09:02:16Z</time>
      </trkpt>
      <trkpt lat="43.13702" lon="0.31127">
        <ele>464.3</ele>
        <time>2020-09-01T09:02:31Z</time>
      </trkpt>
      <trkpt lat="43.13796" lon="0.31057">
        <ele>459.8</ele>
        <time>2020-09-01T09:02:46Z</time>
      </trkpt>
      <trkpt lat="43.13892" lon="0.30966">
        <ele>455.4</ele>
        <time>2020-09-01T09:03:01Z</time>
      </trkpt>
      <trkpt lat="43.13993" lon="0.30871">
        <ele>452</ele>
        <time>2020-09-01T09:03:16Z</time>
      </trkpt>
      <trkpt lat="43.14112" lon="0.30799">
        <ele>449.3</ele>
        <time>2020-09-01T09:03:31Z</time>
      </trkpt>
      <trkpt lat="43.14223" lon="0.30737">
        <ele>442.2</ele>
        <time>2020-09-01T09:03:46Z</time>
      </trkpt>
      <trkpt lat="43.14291" lon="0.30582">
        <ele>437.1</ele>
        <time>2020-09-01T09:04:01Z</time>
      </trkpt>
      <trkpt lat="43.14352" lon="0.30483">
        <ele>433.6</ele>
        <time>2020-09-01T09:04:11Z</time>
      </trkpt>
      <trkpt lat="43.14409" lon="0.3038">
        <ele>429.4</ele>
        <time>2020-09-01T09:04:21Z</time>
      </trkpt>
      <trkpt lat="43.14468" lon="0.30279">
        <ele>425.6</ele>
        <time>2020-09-01T09:04:31Z</time>
      </trkpt>
      <trkpt lat="43.14571" lon="0.30168">
        <ele>420</ele>
        <time>2020-09-01T09:04:46Z</time>
      </trkpt>
      <trkpt lat="43.1464" lon="0.30083">
        <ele>416.7</ele>
        <time>2020-09-01T09:04:56Z</time>
      </trkpt>
      <trkpt lat="43.14706" lon="0.29921">
        <ele>409</ele>
        <time>2020-09-01T09:05:11Z</time>
      </trkpt>
      <trkpt lat="43.14759" lon="0.29818">
        <ele>404.8</ele>
        <time>2020-09-01T09:05:21Z</time>
      </trkpt>
      <trkpt lat="43.14855" lon="0.29696">
        <ele>398.5</ele>
        <time>2020-09-01T09:05:36Z</time>
      </trkpt>
      <trkpt lat="43.14932" lon="0.29576">
        <ele>393.1</ele>
        <time>2020-09-01T09:05:51Z</time>
      </trkpt>
      <trkpt lat="43.15008" lon="0.29475">
        <ele>388.3</ele>
        <time>2020-09-01T09:06:06Z</time>
      </trkpt>
      <trkpt lat="43.15085" lon="0.29389">
        <ele>382</ele>
        <time>2020-09-01T09:06:21Z</time>
      </trkpt>
      <trkpt lat="43.15174" lon="0.29294">
        <ele>377.2</ele>
        <time>2020-09-01T09:06:36Z</time>
      </trkpt>
      <trkpt lat="43.15267" lon="0.29194">
        <ele>375.2</ele>
        <time>2020-09-01T09:06:51Z</time>
      </trkpt>
      <trkpt lat="43.15357" lon="0.29106">
        <ele>368.2</ele>
        <time>2020-09-01T09:07:06Z</time>
      </trkpt>
      <trkpt lat="43.15437" lon="0.29019">
        <ele>364.8</ele>
        <time>2020-09-01T09:07:21Z</time>
      </trkpt>
      <trkpt lat="43.15514" lon="0.28951">
        <ele>359.4</ele>
        <time>2020-09-01T09:07:36Z</time>
      </trkpt>
      <trkpt lat="43.15594" lon="0.2887">
        <ele>356.7</ele>
        <time>2020-09-01T09:07:56Z</time>
      </trkpt>
      <trkpt lat="43.15686" lon="0.28787">
        <ele>357.9</ele>
        <time>2020-09-01T09:08:16Z</time>
      </trkpt>
      <trkpt lat="43.15764" lon="0.28662">
        <ele>355.2</ele>
        <time>2020-09-01T09:08:36Z</time>
      </trkpt>
      <trkpt lat="43.15824" lon="0.28548">
        <ele>352.7</ele>
        <time>2020-09-01T09:08:51Z</time>
      </trkpt>
      <trkpt lat="43.15891" lon="0.28438">
        <ele>350.7</ele>
        <time>2020-09-01T09:09:06Z</time>
      </trkpt>
      <trkpt lat="43.15952" lon="0.28335">
        <ele>347.3</ele>
        <time>2020-09-01T09:09:21Z</time>
      </trkpt>
      <trkpt lat="43.16029" lon="0.28198">
        <ele>344.6</ele>
        <time>2020-09-01T09:09:36Z</time>
      </trkpt>
      <trkpt lat="43.16071" lon="0.28037">
        <ele>339.5</ele>
        <time>2020-09-01T09:09:51Z</time>
      </trkpt>
      <trkpt lat="43.1612" lon="0.27915">
        <ele>339.3</ele>
        <time>2020-09-01T09:10:06Z</time>
      </trkpt>
      <trkpt lat="43.16189" lon="0.27792">
        <ele>333.6</ele>
        <time>2020-09-01T09:10:26Z</time>
      </trkpt>
      <trkpt lat="43.16263" lon="0.27674">
        <ele>329.7</ele>
        <time>2020-09-01T09:10:41Z</time>
      </trkpt>
      <trkpt lat="43.16313" lon="0.27571">
        <ele>328.9</ele>
        <time>2020-09-01T09:10:56Z</time>
      </trkpt>
      <trkpt lat="43.16368" lon="0.27454">
        <ele>328</ele>
        <time>2020-09-01T09:11:26Z</time>
      </trkpt>
      <trkpt lat="43.16422" lon="0.27336">
        <ele>326.7</ele>
        <time>2020-09-01T09:11:56Z</time>
      </trkpt>
      <trkpt lat="43.16476" lon="0.27221">
        <ele>323.4</ele>
        <time>2020-09-01T09:12:21Z</time>
      </trkpt>
      <trkpt lat="43.16541" lon="0.27132">
        <ele>322.6</ele>
        <time>2020-09-01T09:12:46Z</time>
      </trkpt>
      <trkpt lat="43.16595" lon="0.27025">
        <ele>321.5</ele>
        <time>2020-09-01T09:13:06Z</time>
      </trkpt>
      <trkpt lat="43.16636" lon="0.26892">
        <ele>319.4</ele>
        <time>2020-09-01T09:13:20Z</time>
      </trkpt>
      <trkpt lat="43.1668" lon="0.26768">
        <ele>319</ele>
        <time>2020-09-01T09:13:35Z</time>
      </trkpt>
      <trkpt lat="43.1672" lon="0.2664">
        <ele>318</ele>
        <time>2020-09-01T09:13:55Z</time>
      </trkpt>
      <trkpt lat="43.16769" lon="0.26506">
        <ele>316.7</ele>
        <time>2020-09-01T09:14:15Z</time>
      </trkpt>
      <trkpt lat="43.16818" lon="0.26361">
        <ele>312.9</ele>
        <time>2020-09-01T09:14:35Z</time>
      </trkpt>
      <trkpt lat="43.16858" lon="0.26245">
        <ele>313.1</ele>
        <time>2020-09-01T09:14:55Z</time>
      </trkpt>
      <trkpt lat="43.16898" lon="0.2612">
        <ele>313.3</ele>
        <time>2020-09-01T09:15:30Z</time>
      </trkpt>
      <trkpt lat="43.16938" lon="0.25995">
        <ele>312.5</ele>
        <time>2020-09-01T09:16:00Z</time>
      </trkpt>
      <trkpt lat="43.16979" lon="0.25874">
        <ele>310.9</ele>
        <time>2020-09-01T09:16:25Z</time>
      </trkpt>
      <trkpt lat="43.17029" lon="0.2573">
        <ele>309.2</ele>
        <time>2020-09-01T09:16:45Z</time>
      </trkpt>
      <trkpt lat="43.17079" lon="0.25605">
        <ele>307.9</ele>
        <time>2020-09-01T09:17:10Z</time>
      </trkpt>
      <trkpt lat="43.17156" lon="0.25506">
        <ele>304.3</ele>
        <time>2020-09-01T09:17:25Z</time>
      </trkpt>
      <trkpt lat="43.17246" lon="0.25434">
        <ele>301.7</ele>
        <time>2020-09-01T09:17:35Z</time>
      </trkpt>
      <trkpt lat="43.17339" lon="0.25372">
        <ele>299.2</ele>
        <time>2020-09-01T09:17:45Z</time>
      </trkpt>
      <trkpt lat="43.17418" lon="0.25313">
        <ele>297.4</ele>
        <time>2020-09-01T09:17:55Z</time>
      </trkpt>
      <trkpt lat="43.17518" lon="0.25234">
        <ele>293.6</ele>
        <time>2020-09-01T09:18:10Z</time>
      </trkpt>
      <trkpt lat="43.17625" lon="0.25152">
        <ele>289.4</ele>
        <time>2020-09-01T09:18:25Z</time>
      </trkpt>
      <trkpt lat="43.1771" lon="0.2509">
        <ele>285.9</ele>
        <time>2020-09-01T09:18:35Z</time>
      </trkpt>
      <trkpt lat="43.17821" lon="0.25019">
        <ele>281.2</ele>
        <time>2020-09-01T09:18:50Z</time>
      </trkpt>
      <trkpt lat="43.17909" lon="0.24956">
        <ele>278.1</ele>
        <time>2020-09-01T09:19:05Z</time>
      </trkpt>
      <trkpt lat="43.17992" lon="0.24897">
        <ele>274.7</ele>
        <time>2020-09-01T09:19:25Z</time>
      </trkpt>
      <trkpt lat="43.18091" lon="0.24825">
        <ele>272.1</ele>
        <time>2020-09-01T09:19:50Z</time>
      </trkpt>
      <trkpt lat="43.1818" lon="0.24761">
        <ele>270.9</ele>
        <time>2020-09-01T09:20:10Z</time>
      </trkpt>
      <trkpt lat="43.18265" lon="0.24697">
        <ele>269.6</ele>
        <time>2020-09-01T09:20:30Z</time>
      </trkpt>
      <trkpt lat="43.1835" lon="0.24636">
        <ele>269.3</ele>
        <time>2020-09-01T09:20:50Z</time>
      </trkpt>
      <trkpt lat="43.18436" lon="0.24573">
        <ele>268.9</ele>
        <time>2020-09-01T09:21:10Z</time>
      </trkpt>
      <trkpt lat="43.18487" lon="0.24451">
        <ele>268.3</ele>
        <time>2020-09-01T09:21:35Z</time>
      </trkpt>
      <trkpt lat="43.18457" lon="0.24334">
        <ele>267.4</ele>
        <time>2020-09-01T09:21:55Z</time>
      </trkpt>
      <trkpt lat="43.18428" lon="0.24197">
        <ele>266.3</ele>
        <time>2020-09-01T09:22:20Z</time>
      </trkpt>
      <trkpt lat="43.1841" lon="0.24056">
        <ele>265.3</ele>
        <time>2020-09-01T09:22:50Z</time>
      </trkpt>
      <trkpt lat="43.18481" lon="0.23965">
        <ele>264.5</ele>
        <time>2020-09-01T09:23:10Z</time>
      </trkpt>
      <trkpt lat="43.18548" lon="0.23874">
        <ele>264.2</ele>
        <time>2020-09-01T09:23:30Z</time>
      </trkpt>
      <trkpt lat="43.18628" lon="0.23769">
        <ele>263.8</ele>
        <time>2020-09-01T09:23:55Z</time>
      </trkpt>
      <trkpt lat="43.18694" lon="0.23685">
        <ele>263.2</ele>
        <time>2020-09-01T09:24:15Z</time>
      </trkpt>
      <trkpt lat="43.18771" lon="0.23582">
        <ele>262.4</ele>
        <time>2020-09-01T09:24:40Z</time>
      </trkpt>
      <trkpt lat="43.18847" lon="0.23482">
        <ele>261.8</ele>
        <time>2020-09-01T09:25:05Z</time>
      </trkpt>
      <trkpt lat="43.18914" lon="0.23396">
        <ele>261.5</ele>
        <time>2020-09-01T09:25:30Z</time>
      </trkpt>
      <trkpt lat="43.18988" lon="0.233">
        <ele>261.2</ele>
        <time>2020-09-01T09:26:00Z</time>
      </trkpt>
      <trkpt lat="43.19055" lon="0.23208">
        <ele>260.3</ele>
        <time>2020-09-01T09:26:25Z</time>
      </trkpt>
      <trkpt lat="43.19126" lon="0.23118">
        <ele>260.1</ele>
        <time>2020-09-01T09:26:50Z</time>
      </trkpt>
      <trkpt lat="43.19201" lon="0.23018">
        <ele>259.8</ele>
        <time>2020-09-01T09:27:20Z</time>
      </trkpt>
      <trkpt lat="43.19271" lon="0.22923">
        <ele>259</ele>
        <time>2020-09-01T09:27:45Z</time>
      </trkpt>
      <trkpt lat="43.19347" lon="0.22824">
        <ele>258.6</ele>
        <time>2020-09-01T09:28:10Z</time>
      </trkpt>
      <trkpt lat="43.19416" lon="0.22734">
        <ele>258.3</ele>
        <time>2020-09-01T09:28:35Z</time>
      </trkpt>
      <trkpt lat="43.1949" lon="0.22636">
        <ele>258.1</ele>
        <time>2020-09-01T09:29:05Z</time>
      </trkpt>
      <trkpt lat="43.19559" lon="0.22547">
        <ele>257.7</ele>
        <time>2020-09-01T09:29:45Z</time>
      </trkpt>
      <trkpt lat="43.19626" lon="0.2246">
        <ele>257.5</ele>
        <time>2020-09-01T09:30:30Z</time>
      </trkpt>
      <trkpt lat="43.197" lon="0.22363">
        <ele>257.4</ele>
        <time>2020-09-01T09:31:10Z</time>
      </trkpt>
      <trkpt lat="43.19781" lon="0.22296">
        <ele>257.6</ele>
        <time>2020-09-01T09:31:45Z</time>
      </trkpt>
      <trkpt lat="43.19865" lon="0.22241">
        <ele>258.1</ele>
        <time>2020-09-01T09:32:20Z</time>
      </trkpt>
      <trkpt lat="43.19955" lon="0.22186">
        <ele>258.5</ele>
        <time>2020-09-01T09:32:55Z</time>
      </trkpt>
      <trkpt lat="43.20047" lon="0.22123">
        <ele>259</ele>
        <time>2020-09-01T09:33:30Z</time>
      </trkpt>
      <trkpt lat="43.20138" lon="0.22064">
        <ele>259.6</ele>
        <time>2020-09-01T09:34:05Z</time>
      </trkpt>
      <trkpt lat="43.20228" lon="0.22014">
        <ele>260.6</ele>
        <time>2020-09-01T09:34:35Z</time>
      </trkpt>
      <trkpt lat="43.20322" lon="0.21973">
        <ele>261.1</ele>
        <time>2020-09-01T09:35:00Z</time>
      </trkpt>
      <trkpt lat="43.20411" lon="0.21931">
        <ele>261.1</ele>
        <time>2020-09-01T09:35:25Z</time>
      </trkpt>
      <trkpt lat="43.20492" lon="0.21877">
        <ele>261.3</ele>
        <time>2020-09-01T09:35:55Z</time>
      </trkpt>
      <trkpt lat="43.20575" lon="0.2181">
        <ele>262.1</ele>
        <time>2020-09-01T09:36:35Z</time>
      </trkpt>
      <trkpt lat="43.2066" lon="0.2173">
        <ele>267.4</ele>
        <time>2020-09-01T09:41:39Z</time>
      </trkpt>
      <trkpt lat="43.20737" lon="0.21634">
        <ele>271.2</ele>
        <time>2020-09-01T09:42:04Z</time>
      </trkpt>
      <trkpt lat="43.20789" lon="0.21527">
        <ele>271.2</ele>
        <time>2020-09-01T09:42:24Z</time>
      </trkpt>
      <trkpt lat="43.20819" lon="0.21397">
        <ele>271.2</ele>
        <time>2020-09-01T09:42:59Z</time>
      </trkpt>
      <trkpt lat="43.20827" lon="0.21273">
        <ele>271.3</ele>
        <time>2020-09-01T09:43:39Z</time>
      </trkpt>
      <trkpt lat="43.20826" lon="0.21141">
        <ele>271.5</ele>
        <time>2020-09-01T09:44:19Z</time>
      </trkpt>
      <trkpt lat="43.20824" lon="0.21016">
        <ele>271.9</ele>
        <time>2020-09-01T09:44:59Z</time>
      </trkpt>
      <trkpt lat="43.20823" lon="0.20889">
        <ele>272.5</ele>
        <time>2020-09-01T09:45:39Z</time>
      </trkpt>
      <trkpt lat="43.20815" lon="0.20761">
        <ele>273.2</ele>
        <time>2020-09-01T09:46:19Z</time>
      </trkpt>
      <trkpt lat="43.20812" lon="0.20634">
        <ele>274.5</ele>
        <time>2020-09-01T09:47:05Z</time>
      </trkpt>
      <trkpt lat="43.20813" lon="0.20503">
        <ele>276.2</ele>
        <time>2020-09-01T09:47:59Z</time>
      </trkpt>
      <trkpt lat="43.20807" lon="0.2037">
        <ele>277.7</ele>
        <time>2020-09-01T09:48:51Z</time>
      </trkpt>
      <trkpt lat="43.20758" lon="0.20266">
        <ele>279</ele>
        <time>2020-09-01T09:49:32Z</time>
      </trkpt>
      <trkpt lat="43.20678" lon="0.2019">
        <ele>280.4</ele>
        <time>2020-09-01T09:50:09Z</time>
      </trkpt>
      <trkpt lat="43.20616" lon="0.20099">
        <ele>282.8</ele>
        <time>2020-09-01T09:50:54Z</time>
      </trkpt>
      <trkpt lat="43.20551" lon="0.19999">
        <ele>285.8</ele>
        <time>2020-09-01T09:51:47Z</time>
      </trkpt>
      <trkpt lat="43.2047" lon="0.19936">
        <ele>289.2</ele>
        <time>2020-09-01T09:52:41Z</time>
      </trkpt>
      <trkpt lat="43.2039" lon="0.19871">
        <ele>293.2</ele>
        <time>2020-09-01T09:53:30Z</time>
      </trkpt>
      <trkpt lat="43.20307" lon="0.19821">
        <ele>297.2</ele>
        <time>2020-09-01T09:54:17Z</time>
      </trkpt>
      <trkpt lat="43.20221" lon="0.19758">
        <ele>301</ele>
        <time>2020-09-01T09:55:06Z</time>
      </trkpt>
      <trkpt lat="43.20134" lon="0.19702">
        <ele>304.7</ele>
        <time>2020-09-01T09:55:59Z</time>
      </trkpt>
      <trkpt lat="43.20063" lon="0.19611">
        <ele>307.9</ele>
        <time>2020-09-01T09:56:44Z</time>
      </trkpt>
      <trkpt lat="43.19996" lon="0.19498">
        <ele>314.6</ele>
        <time>2020-09-01T09:57:46Z</time>
      </trkpt>
      <trkpt lat="43.19888" lon="0.19406">
        <ele>315.1</ele>
        <time>2020-09-01T09:58:01Z</time>
      </trkpt>
      <trkpt lat="43.19807" lon="0.19339">
        <ele>315.4</ele>
        <time>2020-09-01T09:58:11Z</time>
      </trkpt>
      <trkpt lat="43.19717" lon="0.19287">
        <ele>313.4</ele>
        <time>2020-09-01T09:58:21Z</time>
      </trkpt>
      <trkpt lat="43.19643" lon="0.19208">
        <ele>314.3</ele>
        <time>2020-09-01T09:58:31Z</time>
      </trkpt>
      <trkpt lat="43.19527" lon="0.19115">
        <ele>306.7</ele>
        <time>2020-09-01T09:58:46Z</time>
      </trkpt>
      <trkpt lat="43.19464" lon="0.19004">
        <ele>303.2</ele>
        <time>2020-09-01T09:58:56Z</time>
      </trkpt>
      <trkpt lat="43.19432" lon="0.1886">
        <ele>302.8</ele>
        <time>2020-09-01T09:59:06Z</time>
      </trkpt>
      <trkpt lat="43.19404" lon="0.18728">
        <ele>303.8</ele>
        <time>2020-09-01T09:59:21Z</time>
      </trkpt>
      <trkpt lat="43.19393" lon="0.18598">
        <ele>303</ele>
        <time>2020-09-01T10:00:11Z</time>
      </trkpt>
      <trkpt lat="43.19424" lon="0.18482">
        <ele>301.6</ele>
        <time>2020-09-01T10:01:08Z</time>
      </trkpt>
      <trkpt lat="43.19449" lon="0.1835">
        <ele>304.3</ele>
        <time>2020-09-01T10:02:07Z</time>
      </trkpt>
      <trkpt lat="43.19458" lon="0.18216">
        <ele>308.1</ele>
        <time>2020-09-01T10:03:04Z</time>
      </trkpt>
      <trkpt lat="43.19476" lon="0.18095">
        <ele>314</ele>
        <time>2020-09-01T10:03:52Z</time>
      </trkpt>
      <trkpt lat="43.19484" lon="0.17967">
        <ele>317.6</ele>
        <time>2020-09-01T10:04:38Z</time>
      </trkpt>
      <trkpt lat="43.19498" lon="0.17845">
        <ele>320.1</ele>
        <time>2020-09-01T10:05:18Z</time>
      </trkpt>
      <trkpt lat="43.1951" lon="0.17719">
        <ele>321.9</ele>
        <time>2020-09-01T10:05:58Z</time>
      </trkpt>
      <trkpt lat="43.19522" lon="0.17596">
        <ele>323.8</ele>
        <time>2020-09-01T10:06:38Z</time>
      </trkpt>
      <trkpt lat="43.19534" lon="0.17466">
        <ele>325.6</ele>
        <time>2020-09-01T10:07:18Z</time>
      </trkpt>
      <trkpt lat="43.19545" lon="0.17338">
        <ele>327.2</ele>
        <time>2020-09-01T10:07:53Z</time>
      </trkpt>
      <trkpt lat="43.19557" lon="0.17213">
        <ele>328.9</ele>
        <time>2020-09-01T10:08:28Z</time>
      </trkpt>
      <trkpt lat="43.1957" lon="0.17078">
        <ele>330.5</ele>
        <time>2020-09-01T10:09:08Z</time>
      </trkpt>
      <trkpt lat="43.19583" lon="0.16948">
        <ele>331.8</ele>
        <time>2020-09-01T10:09:48Z</time>
      </trkpt>
      <trkpt lat="43.19615" lon="0.16812">
        <ele>333</ele>
        <time>2020-09-01T10:10:28Z</time>
      </trkpt>
      <trkpt lat="43.19648" lon="0.16676">
        <ele>334.4</ele>
        <time>2020-09-01T10:11:03Z</time>
      </trkpt>
      <trkpt lat="43.19662" lon="0.16548">
        <ele>336.6</ele>
        <time>2020-09-01T10:11:23Z</time>
      </trkpt>
      <trkpt lat="43.19648" lon="0.1638">
        <ele>337</ele>
        <time>2020-09-01T10:11:38Z</time>
      </trkpt>
      <trkpt lat="43.19653" lon="0.16226">
        <ele>338.8</ele>
        <time>2020-09-01T10:11:53Z</time>
      </trkpt>
      <trkpt lat="43.19668" lon="0.16089">
        <ele>340.6</ele>
        <time>2020-09-01T10:12:23Z</time>
      </trkpt>
      <trkpt lat="43.19681" lon="0.15961">
        <ele>340.8</ele>
        <time>2020-09-01T10:13:03Z</time>
      </trkpt>
      <trkpt lat="43.19694" lon="0.15831">
        <ele>341.4</ele>
        <time>2020-09-01T10:13:43Z</time>
      </trkpt>
      <trkpt lat="43.19706" lon="0.15703">
        <ele>343.3</ele>
        <time>2020-09-01T10:14:29Z</time>
      </trkpt>
      <trkpt lat="43.19638" lon="0.1561">
        <ele>349.9</ele>
        <time>2020-09-01T10:48:25Z</time>
      </trkpt>
      <trkpt lat="43.19719" lon="0.15541">
        <ele>355.5</ele>
        <time>2020-09-01T11:25:08Z</time>
      </trkpt>
      <trkpt lat="43.19732" lon="0.15405">
        <ele>356.3</ele>
        <time>2020-09-01T11:26:02Z</time>
      </trkpt>
      <trkpt lat="43.19745" lon="0.15273">
        <ele>357.6</ele>
        <time>2020-09-01T11:27:01Z</time>
      </trkpt>
      <trkpt lat="43.19759" lon="0.1514">
        <ele>359.4</ele>
        <time>2020-09-01T11:27:59Z</time>
      </trkpt>
      <trkpt lat="43.19774" lon="0.1501">
        <ele>361.6</ele>
        <time>2020-09-01T11:28:52Z</time>
      </trkpt>
      <trkpt lat="43.1979" lon="0.14877">
        <ele>364</ele>
        <time>2020-09-01T11:29:51Z</time>
      </trkpt>
      <trkpt lat="43.19804" lon="0.14755">
        <ele>366.4</ele>
        <time>2020-09-01T11:30:46Z</time>
      </trkpt>
      <trkpt lat="43.19817" lon="0.14632">
        <ele>369</ele>
        <time>2020-09-01T11:31:43Z</time>
      </trkpt>
      <trkpt lat="43.19833" lon="0.14477">
        <ele>373.4</ele>
        <time>2020-09-01T11:32:28Z</time>
      </trkpt>
      <trkpt lat="43.19849" lon="0.14345">
        <ele>374.7</ele>
        <time>2020-09-01T11:32:43Z</time>
      </trkpt>
      <trkpt lat="43.19881" lon="0.14188">
        <ele>375.9</ele>
        <time>2020-09-01T11:32:58Z</time>
      </trkpt>
      <trkpt lat="43.19907" lon="0.14057">
        <ele>379.2</ele>
        <time>2020-09-01T11:33:18Z</time>
      </trkpt>
      <trkpt lat="43.19931" lon="0.13933">
        <ele>382.4</ele>
        <time>2020-09-01T11:34:00Z</time>
      </trkpt>
      <trkpt lat="43.19958" lon="0.13803">
        <ele>389.7</ele>
        <time>2020-09-01T11:35:00Z</time>
      </trkpt>
      <trkpt lat="43.19983" lon="0.13672">
        <ele>398</ele>
        <time>2020-09-01T11:36:00Z</time>
      </trkpt>
      <trkpt lat="43.20007" lon="0.1354">
        <ele>405.2</ele>
        <time>2020-09-01T11:36:59Z</time>
      </trkpt>
      <trkpt lat="43.20029" lon="0.13415">
        <ele>407.9</ele>
        <time>2020-09-01T11:37:39Z</time>
      </trkpt>
      <trkpt lat="43.20057" lon="0.1328">
        <ele>409.4</ele>
        <time>2020-09-01T11:38:14Z</time>
      </trkpt>
      <trkpt lat="43.20074" lon="0.13149">
        <ele>411.4</ele>
        <time>2020-09-01T11:38:54Z</time>
      </trkpt>
      <trkpt lat="43.20051" lon="0.12987">
        <ele>415.7</ele>
        <time>2020-09-01T11:39:29Z</time>
      </trkpt>
      <trkpt lat="43.20021" lon="0.12834">
        <ele>415.5</ele>
        <time>2020-09-01T11:39:44Z</time>
      </trkpt>
      <trkpt lat="43.19978" lon="0.12725">
        <ele>414.5</ele>
        <time>2020-09-01T11:39:54Z</time>
      </trkpt>
      <trkpt lat="43.20064" lon="0.12602">
        <ele>413.5</ele>
        <time>2020-09-01T11:40:09Z</time>
      </trkpt>
      <trkpt lat="43.20137" lon="0.12712">
        <ele>410.7</ele>
        <time>2020-09-01T11:40:24Z</time>
      </trkpt>
      <trkpt lat="43.20119" lon="0.1287">
        <ele>405.3</ele>
        <time>2020-09-01T11:40:39Z</time>
      </trkpt>
      <trkpt lat="43.20224" lon="0.12777">
        <ele>397</ele>
        <time>2020-09-01T11:40:54Z</time>
      </trkpt>
      <trkpt lat="43.20352" lon="0.12794">
        <ele>388.9</ele>
        <time>2020-09-01T11:41:09Z</time>
      </trkpt>
      <trkpt lat="43.20365" lon="0.12671">
        <ele>386.3</ele>
        <time>2020-09-01T11:41:19Z</time>
      </trkpt>
      <trkpt lat="43.20378" lon="0.1254">
        <ele>386.3</ele>
        <time>2020-09-01T11:41:29Z</time>
      </trkpt>
      <trkpt lat="43.204" lon="0.1241">
        <ele>381.9</ele>
        <time>2020-09-01T11:41:39Z</time>
      </trkpt>
      <trkpt lat="43.20459" lon="0.12294">
        <ele>371.3</ele>
        <time>2020-09-01T11:41:54Z</time>
      </trkpt>
      <trkpt lat="43.20478" lon="0.12156">
        <ele>368.6</ele>
        <time>2020-09-01T11:42:29Z</time>
      </trkpt>
      <trkpt lat="43.20511" lon="0.12027">
        <ele>366.1</ele>
        <time>2020-09-01T11:42:44Z</time>
      </trkpt>
      <trkpt lat="43.20541" lon="0.11905">
        <ele>364.8</ele>
        <time>2020-09-01T11:42:59Z</time>
      </trkpt>
      <trkpt lat="43.20571" lon="0.11788">
        <ele>362.7</ele>
        <time>2020-09-01T11:43:13Z</time>
      </trkpt>
      <trkpt lat="43.2056" lon="0.1165">
        <ele>360.9</ele>
        <time>2020-09-01T11:43:33Z</time>
      </trkpt>
      <trkpt lat="43.2051" lon="0.11546">
        <ele>362.1</ele>
        <time>2020-09-01T11:43:53Z</time>
      </trkpt>
      <trkpt lat="43.20483" lon="0.11408">
        <ele>359.9</ele>
        <time>2020-09-01T11:44:18Z</time>
      </trkpt>
      <trkpt lat="43.20464" lon="0.11277">
        <ele>356.7</ele>
        <time>2020-09-01T11:44:43Z</time>
      </trkpt>
      <trkpt lat="43.20445" lon="0.11144">
        <ele>356</ele>
        <time>2020-09-01T11:45:08Z</time>
      </trkpt>
      <trkpt lat="43.20429" lon="0.11006">
        <ele>355.8</ele>
        <time>2020-09-01T11:45:33Z</time>
      </trkpt>
      <trkpt lat="43.20415" lon="0.10866">
        <ele>356.4</ele>
        <time>2020-09-01T11:45:58Z</time>
      </trkpt>
      <trkpt lat="43.20398" lon="0.10714">
        <ele>354.8</ele>
        <time>2020-09-01T11:46:23Z</time>
      </trkpt>
      <trkpt lat="43.20383" lon="0.10592">
        <ele>351.4</ele>
        <time>2020-09-01T11:46:43Z</time>
      </trkpt>
      <trkpt lat="43.20368" lon="0.1045">
        <ele>350.9</ele>
        <time>2020-09-01T11:47:08Z</time>
      </trkpt>
      <trkpt lat="43.20363" lon="0.10311">
        <ele>350.8</ele>
        <time>2020-09-01T11:47:33Z</time>
      </trkpt>
      <trkpt lat="43.2036" lon="0.10166">
        <ele>349.4</ele>
        <time>2020-09-01T11:47:58Z</time>
      </trkpt>
      <trkpt lat="43.20351" lon="0.10031">
        <ele>348.2</ele>
        <time>2020-09-01T11:48:23Z</time>
      </trkpt>
      <trkpt lat="43.20397" lon="0.09903">
        <ele>346.4</ele>
        <time>2020-09-01T11:48:53Z</time>
      </trkpt>
      <trkpt lat="43.20409" lon="0.09761">
        <ele>345.1</ele>
        <time>2020-09-01T11:49:13Z</time>
      </trkpt>
      <trkpt lat="43.20435" lon="0.09614">
        <ele>344.6</ele>
        <time>2020-09-01T11:49:33Z</time>
      </trkpt>
      <trkpt lat="43.20404" lon="0.09495">
        <ele>343.2</ele>
        <time>2020-09-01T11:49:53Z</time>
      </trkpt>
      <trkpt lat="43.20365" lon="0.0938">
        <ele>343</ele>
        <time>2020-09-01T11:50:18Z</time>
      </trkpt>
      <trkpt lat="43.20349" lon="0.09237">
        <ele>342.8</ele>
        <time>2020-09-01T11:50:53Z</time>
      </trkpt>
      <trkpt lat="43.20354" lon="0.0909">
        <ele>341</ele>
        <time>2020-09-01T11:51:18Z</time>
      </trkpt>
      <trkpt lat="43.20354" lon="0.08942">
        <ele>341.2</ele>
        <time>2020-09-01T11:51:43Z</time>
      </trkpt>
      <trkpt lat="43.2036" lon="0.08798">
        <ele>341</ele>
        <time>2020-09-01T11:52:08Z</time>
      </trkpt>
      <trkpt lat="43.20337" lon="0.08658">
        <ele>340.1</ele>
        <time>2020-09-01T11:52:33Z</time>
      </trkpt>
      <trkpt lat="43.20317" lon="0.08516">
        <ele>339.4</ele>
        <time>2020-09-01T11:52:58Z</time>
      </trkpt>
      <trkpt lat="43.2032" lon="0.08369">
        <ele>338.9</ele>
        <time>2020-09-01T11:53:23Z</time>
      </trkpt>
      <trkpt lat="43.20309" lon="0.08234">
        <ele>339.1</ele>
        <time>2020-09-01T11:53:48Z</time>
      </trkpt>
      <trkpt lat="43.20289" lon="0.08096">
        <ele>339</ele>
        <time>2020-09-01T11:54:13Z</time>
      </trkpt>
      <trkpt lat="43.20268" lon="0.07945">
        <ele>339</ele>
        <time>2020-09-01T11:54:38Z</time>
      </trkpt>
      <trkpt lat="43.20251" lon="0.07818">
        <ele>338.9</ele>
        <time>2020-09-01T11:54:58Z</time>
      </trkpt>
      <trkpt lat="43.20219" lon="0.07702">
        <ele>339</ele>
        <time>2020-09-01T11:55:18Z</time>
      </trkpt>
      <trkpt lat="43.20197" lon="0.07579">
        <ele>338.9</ele>
        <time>2020-09-01T11:55:43Z</time>
      </trkpt>
      <trkpt lat="43.20283" lon="0.07531">
        <ele>338.6</ele>
        <time>2020-09-01T11:56:03Z</time>
      </trkpt>
      <trkpt lat="43.20374" lon="0.07481">
        <ele>338.3</ele>
        <time>2020-09-01T11:56:23Z</time>
      </trkpt>
      <trkpt lat="43.20464" lon="0.07419">
        <ele>337.9</ele>
        <time>2020-09-01T11:56:43Z</time>
      </trkpt>
      <trkpt lat="43.20434" lon="0.07277">
        <ele>337.5</ele>
        <time>2020-09-01T11:57:08Z</time>
      </trkpt>
      <trkpt lat="43.20393" lon="0.07159">
        <ele>337.3</ele>
        <time>2020-09-01T11:57:28Z</time>
      </trkpt>
      <trkpt lat="43.20451" lon="0.0704">
        <ele>337.1</ele>
        <time>2020-09-01T11:58:08Z</time>
      </trkpt>
      <trkpt lat="43.20545" lon="0.06984">
        <ele>336.9</ele>
        <time>2020-09-01T11:58:33Z</time>
      </trkpt>
      <trkpt lat="43.20544" lon="0.06859">
        <ele>336.8</ele>
        <time>2020-09-01T11:59:03Z</time>
      </trkpt>
      <trkpt lat="43.20516" lon="0.06715">
        <ele>336.3</ele>
        <time>2020-09-01T11:59:33Z</time>
      </trkpt>
      <trkpt lat="43.20485" lon="0.06576">
        <ele>335.9</ele>
        <time>2020-09-01T11:59:58Z</time>
      </trkpt>
      <trkpt lat="43.20435" lon="0.06439">
        <ele>335.7</ele>
        <time>2020-09-01T12:00:23Z</time>
      </trkpt>
      <trkpt lat="43.20364" lon="0.06341">
        <ele>335.4</ele>
        <time>2020-09-01T12:00:43Z</time>
      </trkpt>
      <trkpt lat="43.20289" lon="0.06253">
        <ele>335.3</ele>
        <time>2020-09-01T12:01:03Z</time>
      </trkpt>
      <trkpt lat="43.20216" lon="0.0617">
        <ele>335.3</ele>
        <time>2020-09-01T12:01:23Z</time>
      </trkpt>
      <trkpt lat="43.2011" lon="0.06137">
        <ele>335.3</ele>
        <time>2020-09-01T12:01:48Z</time>
      </trkpt>
      <trkpt lat="43.20132" lon="0.06017">
        <ele>335.2</ele>
        <time>2020-09-01T12:02:13Z</time>
      </trkpt>
      <trkpt lat="43.20195" lon="0.05912">
        <ele>335.1</ele>
        <time>2020-09-01T12:02:33Z</time>
      </trkpt>
      <trkpt lat="43.20237" lon="0.05798">
        <ele>335</ele>
        <time>2020-09-01T12:02:53Z</time>
      </trkpt>
      <trkpt lat="43.20228" lon="0.0566">
        <ele>334.9</ele>
        <time>2020-09-01T12:03:13Z</time>
      </trkpt>
      <trkpt lat="43.20195" lon="0.05524">
        <ele>334.8</ele>
        <time>2020-09-01T12:03:33Z</time>
      </trkpt>
      <trkpt lat="43.20154" lon="0.05395">
        <ele>334.5</ele>
        <time>2020-09-01T12:03:53Z</time>
      </trkpt>
      <trkpt lat="43.20114" lon="0.05271">
        <ele>334.2</ele>
        <time>2020-09-01T12:04:13Z</time>
      </trkpt>
      <trkpt lat="43.20078" lon="0.0515">
        <ele>334</ele>
        <time>2020-09-01T12:04:33Z</time>
      </trkpt>
      <trkpt lat="43.20076" lon="0.04997">
        <ele>333.7</ele>
        <time>2020-09-01T12:04:58Z</time>
      </trkpt>
      <trkpt lat="43.20084" lon="0.04871">
        <ele>333.5</ele>
        <time>2020-09-01T12:05:18Z</time>
      </trkpt>
      <trkpt lat="43.20123" lon="0.04752">
        <ele>333.3</ele>
        <time>2020-09-01T12:05:43Z</time>
      </trkpt>
      <trkpt lat="43.20172" lon="0.0464">
        <ele>333.2</ele>
        <time>2020-09-01T12:06:08Z</time>
      </trkpt>
      <trkpt lat="43.20192" lon="0.04519">
        <ele>333.2</ele>
        <time>2020-09-01T12:06:33Z</time>
      </trkpt>
      <trkpt lat="43.20207" lon="0.04381">
        <ele>333.1</ele>
        <time>2020-09-01T12:07:03Z</time>
      </trkpt>
      <trkpt lat="43.20186" lon="0.04247">
        <ele>333.1</ele>
        <time>2020-09-01T12:07:33Z</time>
      </trkpt>
      <trkpt lat="43.20161" lon="0.04108">
        <ele>333</ele>
        <time>2020-09-01T12:08:02Z</time>
      </trkpt>
      <trkpt lat="43.20153" lon="0.03969">
        <ele>332.8</ele>
        <time>2020-09-01T12:08:27Z</time>
      </trkpt>
      <trkpt lat="43.20098" lon="0.03833">
        <ele>332.4</ele>
        <time>2020-09-01T12:08:47Z</time>
      </trkpt>
      <trkpt lat="43.20024" lon="0.03715">
        <ele>330.8</ele>
        <time>2020-09-01T12:09:02Z</time>
      </trkpt>
      <trkpt lat="43.19993" lon="0.03576">
        <ele>329.5</ele>
        <time>2020-09-01T12:09:17Z</time>
      </trkpt>
      <trkpt lat="43.19966" lon="0.03431">
        <ele>327.2</ele>
        <time>2020-09-01T12:09:47Z</time>
      </trkpt>
      <trkpt lat="43.19921" lon="0.03324">
        <ele>325.5</ele>
        <time>2020-09-01T12:10:31Z</time>
      </trkpt>
      <trkpt lat="43.19897" lon="0.03203">
        <ele>323.7</ele>
        <time>2020-09-01T12:11:23Z</time>
      </trkpt>
      <trkpt lat="43.19964" lon="0.03087">
        <ele>323.4</ele>
        <time>2020-09-01T12:11:48Z</time>
      </trkpt>
      <trkpt lat="43.20002" lon="0.02972">
        <ele>323.1</ele>
        <time>2020-09-01T12:12:08Z</time>
      </trkpt>
      <trkpt lat="43.20043" lon="0.02841">
        <ele>323.2</ele>
        <time>2020-09-01T12:12:33Z</time>
      </trkpt>
      <trkpt lat="43.20088" lon="0.02727">
        <ele>323.1</ele>
        <time>2020-09-01T12:12:58Z</time>
      </trkpt>
      <trkpt lat="43.20107" lon="0.02603">
        <ele>325.3</ele>
        <time>2020-09-01T12:14:37Z</time>
      </trkpt>
      <trkpt lat="43.20091" lon="0.02465">
        <ele>329.6</ele>
        <time>2020-09-01T12:15:12Z</time>
      </trkpt>
      <trkpt lat="43.20079" lon="0.02318">
        <ele>329.3</ele>
        <time>2020-09-01T12:15:42Z</time>
      </trkpt>
      <trkpt lat="43.20107" lon="0.02189">
        <ele>327.9</ele>
        <time>2020-09-01T12:16:07Z</time>
      </trkpt>
      <trkpt lat="43.20121" lon="0.02066">
        <ele>328</ele>
        <time>2020-09-01T12:16:32Z</time>
      </trkpt>
      <trkpt lat="43.20097" lon="0.01934">
        <ele>327.2</ele>
        <time>2020-09-01T12:17:02Z</time>
      </trkpt>
      <trkpt lat="43.20074" lon="0.01812">
        <ele>327.4</ele>
        <time>2020-09-01T12:17:27Z</time>
      </trkpt>
      <trkpt lat="43.20043" lon="0.01671">
        <ele>326.9</ele>
        <time>2020-09-01T12:17:52Z</time>
      </trkpt>
      <trkpt lat="43.19977" lon="0.0155">
        <ele>326.7</ele>
        <time>2020-09-01T12:18:17Z</time>
      </trkpt>
      <trkpt lat="43.19988" lon="0.01411">
        <ele>325.9</ele>
        <time>2020-09-01T12:18:47Z</time>
      </trkpt>
      <trkpt lat="43.1996" lon="0.01263">
        <ele>326.1</ele>
        <time>2020-09-01T12:19:12Z</time>
      </trkpt>
      <trkpt lat="43.19934" lon="0.01126">
        <ele>327</ele>
        <time>2020-09-01T12:19:37Z</time>
      </trkpt>
      <trkpt lat="43.19908" lon="0.01004">
        <ele>327.3</ele>
        <time>2020-09-01T12:20:03Z</time>
      </trkpt>
      <trkpt lat="43.19825" lon="0.00933">
        <ele>328.5</ele>
        <time>2020-09-01T12:20:57Z</time>
      </trkpt>
      <trkpt lat="43.19753" lon="0.00846">
        <ele>330.3</ele>
        <time>2020-09-01T12:21:56Z</time>
      </trkpt>
      <trkpt lat="43.19706" lon="0.00727">
        <ele>331.3</ele>
        <time>2020-09-01T12:22:36Z</time>
      </trkpt>
      <trkpt lat="43.19684" lon="0.00596">
        <ele>332.4</ele>
        <time>2020-09-01T12:23:22Z</time>
      </trkpt>
      <trkpt lat="43.19664" lon="0.00475">
        <ele>333.7</ele>
        <time>2020-09-01T12:23:57Z</time>
      </trkpt>
      <trkpt lat="43.19633" lon="0.00347">
        <ele>334.8</ele>
        <time>2020-09-01T12:24:22Z</time>
      </trkpt>
      <trkpt lat="43.19603" lon="0.00204">
        <ele>335.3</ele>
        <time>2020-09-01T12:24:47Z</time>
      </trkpt>
      <trkpt lat="43.19574" lon="0.00069">
        <ele>335.7</ele>
        <time>2020-09-01T12:25:12Z</time>
      </trkpt>
      <trkpt lat="43.19546" lon="-0.00058">
        <ele>334.5</ele>
        <time>2020-09-01T12:25:37Z</time>
      </trkpt>
      <trkpt lat="43.19515" lon="-0.00197">
        <ele>334.8</ele>
        <time>2020-09-01T12:26:07Z</time>
      </trkpt>
      <trkpt lat="43.19485" lon="-0.00336">
        <ele>335.6</ele>
        <time>2020-09-01T12:26:32Z</time>
      </trkpt>
      <trkpt lat="43.19455" lon="-0.00472">
        <ele>336</ele>
        <time>2020-09-01T12:26:57Z</time>
      </trkpt>
      <trkpt lat="43.19425" lon="-0.00609">
        <ele>336.4</ele>
        <time>2020-09-01T12:27:22Z</time>
      </trkpt>
      <trkpt lat="43.19393" lon="-0.00754">
        <ele>336.7</ele>
        <time>2020-09-01T12:27:47Z</time>
      </trkpt>
      <trkpt lat="43.19367" lon="-0.00875">
        <ele>337</ele>
        <time>2020-09-01T12:28:07Z</time>
      </trkpt>
      <trkpt lat="43.19341" lon="-0.00998">
        <ele>337.3</ele>
        <time>2020-09-01T12:28:27Z</time>
      </trkpt>
      <trkpt lat="43.19316" lon="-0.0112">
        <ele>337.6</ele>
        <time>2020-09-01T12:28:47Z</time>
      </trkpt>
      <trkpt lat="43.19281" lon="-0.01267">
        <ele>337.9</ele>
        <time>2020-09-01T12:29:12Z</time>
      </trkpt>
      <trkpt lat="43.19251" lon="-0.01408">
        <ele>338.2</ele>
        <time>2020-09-01T12:29:37Z</time>
      </trkpt>
      <trkpt lat="43.1922" lon="-0.01551">
        <ele>338.5</ele>
        <time>2020-09-01T12:30:02Z</time>
      </trkpt>
      <trkpt lat="43.19194" lon="-0.0167">
        <ele>338.7</ele>
        <time>2020-09-01T12:30:22Z</time>
      </trkpt>
      <trkpt lat="43.19161" lon="-0.01816">
        <ele>339.1</ele>
        <time>2020-09-01T12:30:47Z</time>
      </trkpt>
      <trkpt lat="43.19129" lon="-0.01959">
        <ele>339.8</ele>
        <time>2020-09-01T12:31:12Z</time>
      </trkpt>
      <trkpt lat="43.19102" lon="-0.02096">
        <ele>340.1</ele>
        <time>2020-09-01T12:31:37Z</time>
      </trkpt>
      <trkpt lat="43.19058" lon="-0.02204">
        <ele>340.5</ele>
        <time>2020-09-01T12:31:57Z</time>
      </trkpt>
      <trkpt lat="43.18975" lon="-0.02261">
        <ele>340.7</ele>
        <time>2020-09-01T12:32:16Z</time>
      </trkpt>
      <trkpt lat="43.18876" lon="-0.02311">
        <ele>341.1</ele>
        <time>2020-09-01T12:32:41Z</time>
      </trkpt>
      <trkpt lat="43.18781" lon="-0.02358">
        <ele>341.5</ele>
        <time>2020-09-01T12:33:06Z</time>
      </trkpt>
      <trkpt lat="43.18701" lon="-0.02421">
        <ele>341.7</ele>
        <time>2020-09-01T12:33:31Z</time>
      </trkpt>
      <trkpt lat="43.18625" lon="-0.02495">
        <ele>341.9</ele>
        <time>2020-09-01T12:33:56Z</time>
      </trkpt>
      <trkpt lat="43.18541" lon="-0.02581">
        <ele>342.2</ele>
        <time>2020-09-01T12:34:26Z</time>
      </trkpt>
      <trkpt lat="43.18524" lon="-0.0272">
        <ele>344.7</ele>
        <time>2020-09-01T12:35:19Z</time>
      </trkpt>
      <trkpt lat="43.1846" lon="-0.02816">
        <ele>345.2</ele>
        <time>2020-09-01T12:35:44Z</time>
      </trkpt>
      <trkpt lat="43.18412" lon="-0.02939">
        <ele>347.1</ele>
        <time>2020-09-01T12:36:14Z</time>
      </trkpt>
      <trkpt lat="43.18469" lon="-0.03049">
        <ele>348.9</ele>
        <time>2020-09-01T12:36:39Z</time>
      </trkpt>
      <trkpt lat="43.18526" lon="-0.03158">
        <ele>349.7</ele>
        <time>2020-09-01T12:37:09Z</time>
      </trkpt>
      <trkpt lat="43.18582" lon="-0.03269">
        <ele>351.3</ele>
        <time>2020-09-01T12:37:44Z</time>
      </trkpt>
      <trkpt lat="43.18643" lon="-0.0337">
        <ele>353.4</ele>
        <time>2020-09-01T12:38:30Z</time>
      </trkpt>
      <trkpt lat="43.187" lon="-0.03475">
        <ele>355.9</ele>
        <time>2020-09-01T12:39:00Z</time>
      </trkpt>
      <trkpt lat="43.18735" lon="-0.0359">
        <ele>356.6</ele>
        <time>2020-09-01T12:39:35Z</time>
      </trkpt>
      <trkpt lat="43.18764" lon="-0.03715">
        <ele>358.1</ele>
        <time>2020-09-01T12:40:16Z</time>
      </trkpt>
      <trkpt lat="43.18765" lon="-0.03864">
        <ele>359.6</ele>
        <time>2020-09-01T12:40:36Z</time>
      </trkpt>
      <trkpt lat="43.18761" lon="-0.03994">
        <ele>360.2</ele>
        <time>2020-09-01T12:40:51Z</time>
      </trkpt>
      <trkpt lat="43.18762" lon="-0.04125">
        <ele>362</ele>
        <time>2020-09-01T12:41:06Z</time>
      </trkpt>
      <trkpt lat="43.1876" lon="-0.04269">
        <ele>361.3</ele>
        <time>2020-09-01T12:41:26Z</time>
      </trkpt>
      <trkpt lat="43.18762" lon="-0.04403">
        <ele>361.8</ele>
        <time>2020-09-01T12:41:51Z</time>
      </trkpt>
      <trkpt lat="43.18761" lon="-0.0453">
        <ele>364.7</ele>
        <time>2020-09-01T12:42:43Z</time>
      </trkpt>
      <trkpt lat="43.18762" lon="-0.04661">
        <ele>367.4</ele>
        <time>2020-09-01T12:43:23Z</time>
      </trkpt>
      <trkpt lat="43.18761" lon="-0.04786">
        <ele>373.7</ele>
        <time>2020-09-01T12:53:04Z</time>
      </trkpt>
      <trkpt lat="43.18752" lon="-0.04915">
        <ele>374.5</ele>
        <time>2020-09-01T12:54:07Z</time>
      </trkpt>
      <trkpt lat="43.18724" lon="-0.05042">
        <ele>375.9</ele>
        <time>2020-09-01T12:55:13Z</time>
      </trkpt>
      <trkpt lat="43.18657" lon="-0.05138">
        <ele>377.9</ele>
        <time>2020-09-01T12:56:14Z</time>
      </trkpt>
      <trkpt lat="43.18638" lon="-0.0527">
        <ele>380.8</ele>
        <time>2020-09-01T12:57:18Z</time>
      </trkpt>
      <trkpt lat="43.18684" lon="-0.05388">
        <ele>387</ele>
        <time>2020-09-01T12:58:22Z</time>
      </trkpt>
      <trkpt lat="43.18665" lon="-0.05509">
        <ele>396.4</ele>
        <time>2020-09-01T12:59:12Z</time>
      </trkpt>
      <trkpt lat="43.18649" lon="-0.05637">
        <ele>408</ele>
        <time>2020-09-01T13:00:13Z</time>
      </trkpt>
      <trkpt lat="43.18623" lon="-0.05756">
        <ele>424.9</ele>
        <time>2020-09-01T13:01:20Z</time>
      </trkpt>
      <trkpt lat="43.18601" lon="-0.05881">
        <ele>433.8</ele>
        <time>2020-09-01T13:02:24Z</time>
      </trkpt>
      <trkpt lat="43.18547" lon="-0.05993">
        <ele>441.3</ele>
        <time>2020-09-01T13:03:18Z</time>
      </trkpt>
      <trkpt lat="43.18527" lon="-0.06115">
        <ele>447</ele>
        <time>2020-09-01T13:04:04Z</time>
      </trkpt>
      <trkpt lat="43.18488" lon="-0.06252">
        <ele>453.8</ele>
        <time>2020-09-01T13:04:34Z</time>
      </trkpt>
      <trkpt lat="43.18454" lon="-0.06367">
        <ele>454.8</ele>
        <time>2020-09-01T13:04:54Z</time>
      </trkpt>
      <trkpt lat="43.18416" lon="-0.06492">
        <ele>455.9</ele>
        <time>2020-09-01T13:05:14Z</time>
      </trkpt>
      <trkpt lat="43.18377" lon="-0.06627">
        <ele>457.3</ele>
        <time>2020-09-01T13:05:39Z</time>
      </trkpt>
      <trkpt lat="43.18334" lon="-0.06771">
        <ele>457.9</ele>
        <time>2020-09-01T13:05:59Z</time>
      </trkpt>
      <trkpt lat="43.18291" lon="-0.06917">
        <ele>458.8</ele>
        <time>2020-09-01T13:06:19Z</time>
      </trkpt>
      <trkpt lat="43.18258" lon="-0.07032">
        <ele>460.1</ele>
        <time>2020-09-01T13:06:49Z</time>
      </trkpt>
      <trkpt lat="43.18218" lon="-0.07166">
        <ele>461.1</ele>
        <time>2020-09-01T13:07:24Z</time>
      </trkpt>
      <trkpt lat="43.18179" lon="-0.07299">
        <ele>461.6</ele>
        <time>2020-09-01T13:09:08Z</time>
      </trkpt>
      <trkpt lat="43.18146" lon="-0.07416">
        <ele>462.6</ele>
        <time>2020-09-01T13:09:38Z</time>
      </trkpt>
      <trkpt lat="43.18109" lon="-0.07542">
        <ele>464.5</ele>
        <time>2020-09-01T13:10:18Z</time>
      </trkpt>
      <trkpt lat="43.18067" lon="-0.07682">
        <ele>466.6</ele>
        <time>2020-09-01T13:10:53Z</time>
      </trkpt>
      <trkpt lat="43.18029" lon="-0.07811">
        <ele>466.6</ele>
        <time>2020-09-01T13:11:13Z</time>
      </trkpt>
      <trkpt lat="43.17995" lon="-0.07928">
        <ele>467.3</ele>
        <time>2020-09-01T13:11:33Z</time>
      </trkpt>
      <trkpt lat="43.17957" lon="-0.08058">
        <ele>467.8</ele>
        <time>2020-09-01T13:12:03Z</time>
      </trkpt>
      <trkpt lat="43.17922" lon="-0.0818">
        <ele>469.4</ele>
        <time>2020-09-01T13:12:28Z</time>
      </trkpt>
      <trkpt lat="43.17878" lon="-0.08335">
        <ele>469.9</ele>
        <time>2020-09-01T13:12:48Z</time>
      </trkpt>
      <trkpt lat="43.17842" lon="-0.08453">
        <ele>469.8</ele>
        <time>2020-09-01T13:13:03Z</time>
      </trkpt>
      <trkpt lat="43.17804" lon="-0.08573">
        <ele>469.8</ele>
        <time>2020-09-01T13:13:18Z</time>
      </trkpt>
      <trkpt lat="43.17736" lon="-0.08689">
        <ele>462.4</ele>
        <time>2020-09-01T13:13:28Z</time>
      </trkpt>
      <trkpt lat="43.17682" lon="-0.08815">
        <ele>459.2</ele>
        <time>2020-09-01T13:13:38Z</time>
      </trkpt>
      <trkpt lat="43.17717" lon="-0.08954">
        <ele>457</ele>
        <time>2020-09-01T13:13:48Z</time>
      </trkpt>
      <trkpt lat="43.17778" lon="-0.09086">
        <ele>452.9</ele>
        <time>2020-09-01T13:13:58Z</time>
      </trkpt>
      <trkpt lat="43.17863" lon="-0.09194">
        <ele>446</ele>
        <time>2020-09-01T13:14:08Z</time>
      </trkpt>
      <trkpt lat="43.17938" lon="-0.09319">
        <ele>439.8</ele>
        <time>2020-09-01T13:14:18Z</time>
      </trkpt>
      <trkpt lat="43.17991" lon="-0.09426">
        <ele>434.4</ele>
        <time>2020-09-01T13:14:28Z</time>
      </trkpt>
      <trkpt lat="43.1807" lon="-0.09562">
        <ele>428.1</ele>
        <time>2020-09-01T13:14:43Z</time>
      </trkpt>
      <trkpt lat="43.18118" lon="-0.09707">
        <ele>422.4</ele>
        <time>2020-09-01T13:14:58Z</time>
      </trkpt>
      <trkpt lat="43.18153" lon="-0.0985">
        <ele>416.8</ele>
        <time>2020-09-01T13:15:13Z</time>
      </trkpt>
      <trkpt lat="43.18192" lon="-0.09986">
        <ele>411.5</ele>
        <time>2020-09-01T13:15:28Z</time>
      </trkpt>
      <trkpt lat="43.18245" lon="-0.10126">
        <ele>407.1</ele>
        <time>2020-09-01T13:15:43Z</time>
      </trkpt>
      <trkpt lat="43.18292" lon="-0.10277">
        <ele>402.5</ele>
        <time>2020-09-01T13:15:58Z</time>
      </trkpt>
      <trkpt lat="43.18336" lon="-0.10443">
        <ele>396.9</ele>
        <time>2020-09-01T13:16:13Z</time>
      </trkpt>
      <trkpt lat="43.18372" lon="-0.10604">
        <ele>391.2</ele>
        <time>2020-09-01T13:16:28Z</time>
      </trkpt>
      <trkpt lat="43.18398" lon="-0.10736">
        <ele>384.2</ele>
        <time>2020-09-01T13:16:43Z</time>
      </trkpt>
      <trkpt lat="43.18413" lon="-0.1088">
        <ele>378.4</ele>
        <time>2020-09-01T13:17:03Z</time>
      </trkpt>
      <trkpt lat="43.18396" lon="-0.11029">
        <ele>372.9</ele>
        <time>2020-09-01T13:17:28Z</time>
      </trkpt>
      <trkpt lat="43.18386" lon="-0.11176">
        <ele>370.1</ele>
        <time>2020-09-01T13:17:53Z</time>
      </trkpt>
      <trkpt lat="43.18413" lon="-0.11311">
        <ele>369.1</ele>
        <time>2020-09-01T13:18:18Z</time>
      </trkpt>
      <trkpt lat="43.18487" lon="-0.1139">
        <ele>366.8</ele>
        <time>2020-09-01T13:18:48Z</time>
      </trkpt>
      <trkpt lat="43.18565" lon="-0.11486">
        <ele>366.8</ele>
        <time>2020-09-01T13:19:18Z</time>
      </trkpt>
      <trkpt lat="43.18647" lon="-0.11563">
        <ele>367</ele>
        <time>2020-09-01T13:19:48Z</time>
      </trkpt>
      <trkpt lat="43.1862" lon="-0.11685">
        <ele>367.6</ele>
        <time>2020-09-01T13:20:54Z</time>
      </trkpt>
      <trkpt lat="43.1865" lon="-0.11808">
        <ele>367.5</ele>
        <time>2020-09-01T13:21:33Z</time>
      </trkpt>
      <trkpt lat="43.18667" lon="-0.11938">
        <ele>367.2</ele>
        <time>2020-09-01T13:22:03Z</time>
      </trkpt>
      <trkpt lat="43.18668" lon="-0.12069">
        <ele>366.8</ele>
        <time>2020-09-01T13:22:33Z</time>
      </trkpt>
      <trkpt lat="43.18674" lon="-0.12199">
        <ele>366.7</ele>
        <time>2020-09-01T13:23:03Z</time>
      </trkpt>
      <trkpt lat="43.18687" lon="-0.12332">
        <ele>367.3</ele>
        <time>2020-09-01T13:23:28Z</time>
      </trkpt>
      <trkpt lat="43.18669" lon="-0.12474">
        <ele>368.1</ele>
        <time>2020-09-01T13:23:53Z</time>
      </trkpt>
      <trkpt lat="43.1865" lon="-0.12625">
        <ele>367.9</ele>
        <time>2020-09-01T13:24:18Z</time>
      </trkpt>
      <trkpt lat="43.18628" lon="-0.12764">
        <ele>368.5</ele>
        <time>2020-09-01T13:24:48Z</time>
      </trkpt>
      <trkpt lat="43.18611" lon="-0.12905">
        <ele>370</ele>
        <time>2020-09-01T13:25:18Z</time>
      </trkpt>
      <trkpt lat="43.18599" lon="-0.13042">
        <ele>369</ele>
        <time>2020-09-01T13:25:43Z</time>
      </trkpt>
      <trkpt lat="43.18575" lon="-0.13164">
        <ele>368.3</ele>
        <time>2020-09-01T13:26:03Z</time>
      </trkpt>
      <trkpt lat="43.18555" lon="-0.13289">
        <ele>368.6</ele>
        <time>2020-09-01T13:26:23Z</time>
      </trkpt>
      <trkpt lat="43.18535" lon="-0.13418">
        <ele>368.9</ele>
        <time>2020-09-01T13:26:48Z</time>
      </trkpt>
      <trkpt lat="43.18534" lon="-0.1356">
        <ele>369.3</ele>
        <time>2020-09-01T13:27:23Z</time>
      </trkpt>
      <trkpt lat="43.18551" lon="-0.13705">
        <ele>370.4</ele>
        <time>2020-09-01T13:27:48Z</time>
      </trkpt>
      <trkpt lat="43.18569" lon="-0.13852">
        <ele>370.6</ele>
        <time>2020-09-01T13:28:13Z</time>
      </trkpt>
      <trkpt lat="43.18588" lon="-0.14003">
        <ele>370.7</ele>
        <time>2020-09-01T13:28:38Z</time>
      </trkpt>
      <trkpt lat="43.18604" lon="-0.14131">
        <ele>370.6</ele>
        <time>2020-09-01T13:28:58Z</time>
      </trkpt>
      <trkpt lat="43.18594" lon="-0.1428">
        <ele>370.5</ele>
        <time>2020-09-01T13:29:18Z</time>
      </trkpt>
      <trkpt lat="43.18561" lon="-0.14407">
        <ele>370.3</ele>
        <time>2020-09-01T13:29:38Z</time>
      </trkpt>
      <trkpt lat="43.1853" lon="-0.14528">
        <ele>370.2</ele>
        <time>2020-09-01T13:30:03Z</time>
      </trkpt>
      <trkpt lat="43.18487" lon="-0.14648">
        <ele>370.3</ele>
        <time>2020-09-01T13:30:33Z</time>
      </trkpt>
      <trkpt lat="43.18438" lon="-0.14753">
        <ele>370.4</ele>
        <time>2020-09-01T13:31:03Z</time>
      </trkpt>
      <trkpt lat="43.18402" lon="-0.14882">
        <ele>370.6</ele>
        <time>2020-09-01T13:31:38Z</time>
      </trkpt>
      <trkpt lat="43.18369" lon="-0.15012">
        <ele>370.9</ele>
        <time>2020-09-01T13:32:18Z</time>
      </trkpt>
      <trkpt lat="43.18328" lon="-0.15125">
        <ele>371.4</ele>
        <time>2020-09-01T13:33:06Z</time>
      </trkpt>
      <trkpt lat="43.18276" lon="-0.15235">
        <ele>373.1</ele>
        <time>2020-09-01T13:36:53Z</time>
      </trkpt>
      <trkpt lat="43.18244" lon="-0.15357">
        <ele>374.7</ele>
        <time>2020-09-01T13:37:58Z</time>
      </trkpt>
      <trkpt lat="43.18282" lon="-0.15475">
        <ele>377.2</ele>
        <time>2020-09-01T13:39:25Z</time>
      </trkpt>
      <trkpt lat="43.1837" lon="-0.15517">
        <ele>381.1</ele>
        <time>2020-09-01T13:41:03Z</time>
      </trkpt>
      <trkpt lat="43.18336" lon="-0.1564">
        <ele>388.2</ele>
        <time>2020-09-01T13:42:48Z</time>
      </trkpt>
      <trkpt lat="43.18251" lon="-0.15708">
        <ele>397.2</ele>
        <time>2020-09-01T13:43:42Z</time>
      </trkpt>
      <trkpt lat="43.18174" lon="-0.15774">
        <ele>405</ele>
        <time>2020-09-01T13:44:31Z</time>
      </trkpt>
      <trkpt lat="43.18131" lon="-0.15894">
        <ele>412.1</ele>
        <time>2020-09-01T13:45:30Z</time>
      </trkpt>
      <trkpt lat="43.18127" lon="-0.16023">
        <ele>416.6</ele>
        <time>2020-09-01T13:46:18Z</time>
      </trkpt>
      <trkpt lat="43.18122" lon="-0.16151">
        <ele>421.2</ele>
        <time>2020-09-01T13:47:05Z</time>
      </trkpt>
      <trkpt lat="43.18139" lon="-0.16283">
        <ele>427</ele>
        <time>2020-09-01T13:48:05Z</time>
      </trkpt>
      <trkpt lat="43.18181" lon="-0.16398">
        <ele>432.3</ele>
        <time>2020-09-01T13:49:03Z</time>
      </trkpt>
      <trkpt lat="43.18179" lon="-0.16531">
        <ele>438.2</ele>
        <time>2020-09-01T13:49:47Z</time>
      </trkpt>
      <trkpt lat="43.1816" lon="-0.16673">
        <ele>442.8</ele>
        <time>2020-09-01T13:50:07Z</time>
      </trkpt>
      <trkpt lat="43.18157" lon="-0.16829">
        <ele>442.7</ele>
        <time>2020-09-01T13:50:22Z</time>
      </trkpt>
      <trkpt lat="43.1817" lon="-0.16962">
        <ele>442.6</ele>
        <time>2020-09-01T13:50:32Z</time>
      </trkpt>
      <trkpt lat="43.18198" lon="-0.171">
        <ele>442.7</ele>
        <time>2020-09-01T13:50:42Z</time>
      </trkpt>
      <trkpt lat="43.18213" lon="-0.1725">
        <ele>442.7</ele>
        <time>2020-09-01T13:50:52Z</time>
      </trkpt>
      <trkpt lat="43.18214" lon="-0.17402">
        <ele>441.3</ele>
        <time>2020-09-01T13:51:02Z</time>
      </trkpt>
      <trkpt lat="43.1823" lon="-0.17551">
        <ele>439.4</ele>
        <time>2020-09-01T13:51:12Z</time>
      </trkpt>
      <trkpt lat="43.18264" lon="-0.17697">
        <ele>436.7</ele>
        <time>2020-09-01T13:51:22Z</time>
      </trkpt>
      <trkpt lat="43.18315" lon="-0.17854">
        <ele>430.7</ele>
        <time>2020-09-01T13:51:32Z</time>
      </trkpt>
      <trkpt lat="43.18365" lon="-0.18032">
        <ele>422</ele>
        <time>2020-09-01T13:51:42Z</time>
      </trkpt>
      <trkpt lat="43.18392" lon="-0.18202">
        <ele>412.9</ele>
        <time>2020-09-01T13:51:52Z</time>
      </trkpt>
      <trkpt lat="43.18386" lon="-0.18361">
        <ele>405.4</ele>
        <time>2020-09-01T13:52:02Z</time>
      </trkpt>
      <trkpt lat="43.18305" lon="-0.18481">
        <ele>398</ele>
        <time>2020-09-01T13:52:12Z</time>
      </trkpt>
      <trkpt lat="43.18307" lon="-0.18631">
        <ele>390.3</ele>
        <time>2020-09-01T13:52:22Z</time>
      </trkpt>
      <trkpt lat="43.18388" lon="-0.18737">
        <ele>381.2</ele>
        <time>2020-09-01T13:52:32Z</time>
      </trkpt>
      <trkpt lat="43.18355" lon="-0.1886">
        <ele>363.2</ele>
        <time>2020-09-01T13:52:47Z</time>
      </trkpt>
      <trkpt lat="43.18407" lon="-0.18996">
        <ele>354.6</ele>
        <time>2020-09-01T13:52:57Z</time>
      </trkpt>
      <trkpt lat="43.18491" lon="-0.19109">
        <ele>344.6</ele>
        <time>2020-09-01T13:53:07Z</time>
      </trkpt>
      <trkpt lat="43.18405" lon="-0.19174">
        <ele>340.1</ele>
        <time>2020-09-01T13:53:17Z</time>
      </trkpt>
      <trkpt lat="43.18336" lon="-0.19317">
        <ele>329.4</ele>
        <time>2020-09-01T13:53:27Z</time>
      </trkpt>
      <trkpt lat="43.18342" lon="-0.19445">
        <ele>324.7</ele>
        <time>2020-09-01T13:53:37Z</time>
      </trkpt>
      <trkpt lat="43.18375" lon="-0.19596">
        <ele>313</ele>
        <time>2020-09-01T13:53:52Z</time>
      </trkpt>
      <trkpt lat="43.18402" lon="-0.19729">
        <ele>306.8</ele>
        <time>2020-09-01T13:54:12Z</time>
      </trkpt>
      <trkpt lat="43.18433" lon="-0.19879">
        <ele>303.7</ele>
        <time>2020-09-01T13:54:42Z</time>
      </trkpt>
      <trkpt lat="43.18472" lon="-0.20019">
        <ele>300.1</ele>
        <time>2020-09-01T13:55:17Z</time>
      </trkpt>
      <trkpt lat="43.18517" lon="-0.20132">
        <ele>296.9</ele>
        <time>2020-09-01T13:55:37Z</time>
      </trkpt>
      <trkpt lat="43.18564" lon="-0.20244">
        <ele>296.7</ele>
        <time>2020-09-01T13:55:57Z</time>
      </trkpt>
      <trkpt lat="43.18618" lon="-0.20375">
        <ele>295.1</ele>
        <time>2020-09-01T13:56:17Z</time>
      </trkpt>
      <trkpt lat="43.18665" lon="-0.20481">
        <ele>292.9</ele>
        <time>2020-09-01T13:56:32Z</time>
      </trkpt>
      <trkpt lat="43.18709" lon="-0.20594">
        <ele>289.9</ele>
        <time>2020-09-01T13:56:47Z</time>
      </trkpt>
      <trkpt lat="43.18747" lon="-0.20756">
        <ele>286</ele>
        <time>2020-09-01T13:57:07Z</time>
      </trkpt>
      <trkpt lat="43.18819" lon="-0.2089">
        <ele>282.6</ele>
        <time>2020-09-01T13:57:22Z</time>
      </trkpt>
      <trkpt lat="43.1892" lon="-0.20968">
        <ele>278.9</ele>
        <time>2020-09-01T13:57:42Z</time>
      </trkpt>
      <trkpt lat="43.19016" lon="-0.21043">
        <ele>275.6</ele>
        <time>2020-09-01T13:58:02Z</time>
      </trkpt>
      <trkpt lat="43.19114" lon="-0.21118">
        <ele>271.8</ele>
        <time>2020-09-01T13:58:27Z</time>
      </trkpt>
      <trkpt lat="43.1918" lon="-0.21211">
        <ele>269.3</ele>
        <time>2020-09-01T13:58:47Z</time>
      </trkpt>
      <trkpt lat="43.19189" lon="-0.21339">
        <ele>267.8</ele>
        <time>2020-09-01T13:59:21Z</time>
      </trkpt>
      <trkpt lat="43.19212" lon="-0.21465">
        <ele>267.7</ele>
        <time>2020-09-01T13:59:51Z</time>
      </trkpt>
      <trkpt lat="43.19301" lon="-0.21527">
        <ele>266.8</ele>
        <time>2020-09-01T14:00:21Z</time>
      </trkpt>
      <trkpt lat="43.19387" lon="-0.21614">
        <ele>265.6</ele>
        <time>2020-09-01T14:00:51Z</time>
      </trkpt>
      <trkpt lat="43.19471" lon="-0.21693">
        <ele>264.7</ele>
        <time>2020-09-01T14:01:21Z</time>
      </trkpt>
      <trkpt lat="43.1953" lon="-0.21799">
        <ele>263</ele>
        <time>2020-09-01T14:01:46Z</time>
      </trkpt>
      <trkpt lat="43.19595" lon="-0.219">
        <ele>262.2</ele>
        <time>2020-09-01T14:02:11Z</time>
      </trkpt>
      <trkpt lat="43.19677" lon="-0.21981">
        <ele>262.3</ele>
        <time>2020-09-01T14:02:36Z</time>
      </trkpt>
      <trkpt lat="43.19783" lon="-0.22021">
        <ele>262.4</ele>
        <time>2020-09-01T14:03:01Z</time>
      </trkpt>
      <trkpt lat="43.19869" lon="-0.22067">
        <ele>262.6</ele>
        <time>2020-09-01T14:03:21Z</time>
      </trkpt>
      <trkpt lat="43.1997" lon="-0.22111">
        <ele>262.3</ele>
        <time>2020-09-01T14:03:46Z</time>
      </trkpt>
      <trkpt lat="43.20071" lon="-0.22169">
        <ele>262.1</ele>
        <time>2020-09-01T14:04:11Z</time>
      </trkpt>
      <trkpt lat="43.20176" lon="-0.2222">
        <ele>261.6</ele>
        <time>2020-09-01T14:04:36Z</time>
      </trkpt>
      <trkpt lat="43.20267" lon="-0.22257">
        <ele>261.6</ele>
        <time>2020-09-01T14:05:01Z</time>
      </trkpt>
      <trkpt lat="43.20359" lon="-0.22297">
        <ele>261.2</ele>
        <time>2020-09-01T14:05:26Z</time>
      </trkpt>
      <trkpt lat="43.2045" lon="-0.22342">
        <ele>261.1</ele>
        <time>2020-09-01T14:05:51Z</time>
      </trkpt>
      <trkpt lat="43.20544" lon="-0.22391">
        <ele>260.9</ele>
        <time>2020-09-01T14:06:16Z</time>
      </trkpt>
      <trkpt lat="43.20629" lon="-0.22462">
        <ele>261</ele>
        <time>2020-09-01T14:06:41Z</time>
      </trkpt>
      <trkpt lat="43.20707" lon="-0.22537">
        <ele>261.1</ele>
        <time>2020-09-01T14:07:06Z</time>
      </trkpt>
      <trkpt lat="43.20797" lon="-0.2262">
        <ele>261.3</ele>
        <time>2020-09-01T14:07:31Z</time>
      </trkpt>
      <trkpt lat="43.20897" lon="-0.22661">
        <ele>261.2</ele>
        <time>2020-09-01T14:07:56Z</time>
      </trkpt>
      <trkpt lat="43.20994" lon="-0.22725">
        <ele>261</ele>
        <time>2020-09-01T14:08:21Z</time>
      </trkpt>
      <trkpt lat="43.21091" lon="-0.22781">
        <ele>261.2</ele>
        <time>2020-09-01T14:08:46Z</time>
      </trkpt>
      <trkpt lat="43.21193" lon="-0.22819">
        <ele>261.2</ele>
        <time>2020-09-01T14:09:11Z</time>
      </trkpt>
      <trkpt lat="43.21296" lon="-0.22854">
        <ele>261.4</ele>
        <time>2020-09-01T14:09:36Z</time>
      </trkpt>
      <trkpt lat="43.21398" lon="-0.22884">
        <ele>261.6</ele>
        <time>2020-09-01T14:10:00Z</time>
      </trkpt>
      <trkpt lat="43.21502" lon="-0.22912">
        <ele>261.5</ele>
        <time>2020-09-01T14:10:25Z</time>
      </trkpt>
      <trkpt lat="43.21601" lon="-0.22955">
        <ele>261.4</ele>
        <time>2020-09-01T14:10:50Z</time>
      </trkpt>
      <trkpt lat="43.21698" lon="-0.23024">
        <ele>261.2</ele>
        <time>2020-09-01T14:11:15Z</time>
      </trkpt>
      <trkpt lat="43.218" lon="-0.23086">
        <ele>260.9</ele>
        <time>2020-09-01T14:11:40Z</time>
      </trkpt>
      <trkpt lat="43.21888" lon="-0.23167">
        <ele>260.6</ele>
        <time>2020-09-01T14:12:05Z</time>
      </trkpt>
      <trkpt lat="43.2197" lon="-0.23252">
        <ele>260.1</ele>
        <time>2020-09-01T14:12:30Z</time>
      </trkpt>
      <trkpt lat="43.22055" lon="-0.2333">
        <ele>259.4</ele>
        <time>2020-09-01T14:12:55Z</time>
      </trkpt>
      <trkpt lat="43.22156" lon="-0.23368">
        <ele>258.9</ele>
        <time>2020-09-01T14:13:20Z</time>
      </trkpt>
      <trkpt lat="43.22259" lon="-0.23418">
        <ele>258.5</ele>
        <time>2020-09-01T14:13:45Z</time>
      </trkpt>
      <trkpt lat="43.2236" lon="-0.23461">
        <ele>258.6</ele>
        <time>2020-09-01T14:14:10Z</time>
      </trkpt>
      <trkpt lat="43.22452" lon="-0.23527">
        <ele>258.6</ele>
        <time>2020-09-01T14:14:35Z</time>
      </trkpt>
      <trkpt lat="43.22538" lon="-0.23612">
        <ele>258.6</ele>
        <time>2020-09-01T14:15:00Z</time>
      </trkpt>
      <trkpt lat="43.22612" lon="-0.2369">
        <ele>258.7</ele>
        <time>2020-09-01T14:15:20Z</time>
      </trkpt>
      <trkpt lat="43.22703" lon="-0.23779">
        <ele>258.8</ele>
        <time>2020-09-01T14:15:45Z</time>
      </trkpt>
      <trkpt lat="43.22788" lon="-0.23868">
        <ele>258.8</ele>
        <time>2020-09-01T14:16:10Z</time>
      </trkpt>
      <trkpt lat="43.22873" lon="-0.23962">
        <ele>258.8</ele>
        <time>2020-09-01T14:16:35Z</time>
      </trkpt>
      <trkpt lat="43.22958" lon="-0.24046">
        <ele>258.8</ele>
        <time>2020-09-01T14:17:00Z</time>
      </trkpt>
      <trkpt lat="43.23046" lon="-0.24131">
        <ele>258.7</ele>
        <time>2020-09-01T14:17:25Z</time>
      </trkpt>
      <trkpt lat="43.23123" lon="-0.24227">
        <ele>258.6</ele>
        <time>2020-09-01T14:17:50Z</time>
      </trkpt>
      <trkpt lat="43.23195" lon="-0.24331">
        <ele>258.2</ele>
        <time>2020-09-01T14:18:15Z</time>
      </trkpt>
      <trkpt lat="43.2327" lon="-0.24438">
        <ele>257.7</ele>
        <time>2020-09-01T14:18:40Z</time>
      </trkpt>
      <trkpt lat="43.23342" lon="-0.24541">
        <ele>257.4</ele>
        <time>2020-09-01T14:19:05Z</time>
      </trkpt>
      <trkpt lat="43.23414" lon="-0.2464">
        <ele>257.2</ele>
        <time>2020-09-01T14:19:30Z</time>
      </trkpt>
      <trkpt lat="43.23485" lon="-0.24741">
        <ele>256.8</ele>
        <time>2020-09-01T14:19:55Z</time>
      </trkpt>
      <trkpt lat="43.23569" lon="-0.24839">
        <ele>255.9</ele>
        <time>2020-09-01T14:20:20Z</time>
      </trkpt>
      <trkpt lat="43.23636" lon="-0.24929">
        <ele>255.3</ele>
        <time>2020-09-01T14:20:40Z</time>
      </trkpt>
      <trkpt lat="43.23731" lon="-0.24996">
        <ele>254.8</ele>
        <time>2020-09-01T14:21:05Z</time>
      </trkpt>
      <trkpt lat="43.23776" lon="-0.25111">
        <ele>253.8</ele>
        <time>2020-09-01T14:21:30Z</time>
      </trkpt>
      <trkpt lat="43.2379" lon="-0.25245">
        <ele>252.5</ele>
        <time>2020-09-01T14:21:55Z</time>
      </trkpt>
      <trkpt lat="43.23842" lon="-0.25377">
        <ele>251.2</ele>
        <time>2020-09-01T14:22:25Z</time>
      </trkpt>
      <trkpt lat="43.23915" lon="-0.25481">
        <ele>250.7</ele>
        <time>2020-09-01T14:22:50Z</time>
      </trkpt>
      <trkpt lat="43.23993" lon="-0.25583">
        <ele>250.9</ele>
        <time>2020-09-01T14:24:07Z</time>
      </trkpt>
      <trkpt lat="43.24049" lon="-0.25704">
        <ele>252.5</ele>
        <time>2020-09-01T14:24:32Z</time>
      </trkpt>
      <trkpt lat="43.24118" lon="-0.25819">
        <ele>252.4</ele>
        <time>2020-09-01T14:24:57Z</time>
      </trkpt>
      <trkpt lat="43.24171" lon="-0.25932">
        <ele>252.2</ele>
        <time>2020-09-01T14:25:22Z</time>
      </trkpt>
      <trkpt lat="43.24216" lon="-0.26053">
        <ele>252</ele>
        <time>2020-09-01T14:25:47Z</time>
      </trkpt>
      <trkpt lat="43.24256" lon="-0.26175">
        <ele>251.7</ele>
        <time>2020-09-01T14:26:12Z</time>
      </trkpt>
      <trkpt lat="43.2428" lon="-0.26309">
        <ele>251.3</ele>
        <time>2020-09-01T14:26:37Z</time>
      </trkpt>
      <trkpt lat="43.2432" lon="-0.26435">
        <ele>250.9</ele>
        <time>2020-09-01T14:27:02Z</time>
      </trkpt>
      <trkpt lat="43.24343" lon="-0.26566">
        <ele>250.5</ele>
        <time>2020-09-01T14:27:27Z</time>
      </trkpt>
      <trkpt lat="43.24358" lon="-0.26695">
        <ele>250.2</ele>
        <time>2020-09-01T14:27:52Z</time>
      </trkpt>
      <trkpt lat="43.24391" lon="-0.26827">
        <ele>249.8</ele>
        <time>2020-09-01T14:28:17Z</time>
      </trkpt>
      <trkpt lat="43.2443" lon="-0.26971">
        <ele>248.4</ele>
        <time>2020-09-01T14:28:42Z</time>
      </trkpt>
      <trkpt lat="43.24462" lon="-0.27093">
        <ele>247.7</ele>
        <time>2020-09-01T14:29:02Z</time>
      </trkpt>
      <trkpt lat="43.24495" lon="-0.27213">
        <ele>247.2</ele>
        <time>2020-09-01T14:29:22Z</time>
      </trkpt>
      <trkpt lat="43.24534" lon="-0.2735">
        <ele>246.8</ele>
        <time>2020-09-01T14:29:47Z</time>
      </trkpt>
      <trkpt lat="43.24575" lon="-0.27488">
        <ele>246.1</ele>
        <time>2020-09-01T14:30:12Z</time>
      </trkpt>
      <trkpt lat="43.24611" lon="-0.27623">
        <ele>245.3</ele>
        <time>2020-09-01T14:30:37Z</time>
      </trkpt>
      <trkpt lat="43.24643" lon="-0.27741">
        <ele>244.8</ele>
        <time>2020-09-01T14:30:57Z</time>
      </trkpt>
      <trkpt lat="43.24676" lon="-0.27861">
        <ele>244.1</ele>
        <time>2020-09-01T14:31:17Z</time>
      </trkpt>
      <trkpt lat="43.24712" lon="-0.28006">
        <ele>243.3</ele>
        <time>2020-09-01T14:31:42Z</time>
      </trkpt>
      <trkpt lat="43.24743" lon="-0.28136">
        <ele>242.7</ele>
        <time>2020-09-01T14:32:07Z</time>
      </trkpt>
      <trkpt lat="43.24723" lon="-0.28269">
        <ele>240.2</ele>
        <time>2020-09-01T14:33:03Z</time>
      </trkpt>
      <trkpt lat="43.24685" lon="-0.28391">
        <ele>238.5</ele>
        <time>2020-09-01T14:33:23Z</time>
      </trkpt>
      <trkpt lat="43.24647" lon="-0.28516">
        <ele>238</ele>
        <time>2020-09-01T14:33:58Z</time>
      </trkpt>
      <trkpt lat="43.24593" lon="-0.28636">
        <ele>237.8</ele>
        <time>2020-09-01T14:34:42Z</time>
      </trkpt>
      <trkpt lat="43.24514" lon="-0.28746">
        <ele>237.4</ele>
        <time>2020-09-01T14:35:02Z</time>
      </trkpt>
      <trkpt lat="43.24436" lon="-0.28838">
        <ele>237.1</ele>
        <time>2020-09-01T14:35:17Z</time>
      </trkpt>
      <trkpt lat="43.24357" lon="-0.28934">
        <ele>236.6</ele>
        <time>2020-09-01T14:35:37Z</time>
      </trkpt>
      <trkpt lat="43.2427" lon="-0.29028">
        <ele>236.3</ele>
        <time>2020-09-01T14:35:57Z</time>
      </trkpt>
      <trkpt lat="43.24182" lon="-0.29127">
        <ele>236</ele>
        <time>2020-09-01T14:36:17Z</time>
      </trkpt>
      <trkpt lat="43.24097" lon="-0.29235">
        <ele>235.9</ele>
        <time>2020-09-01T14:36:37Z</time>
      </trkpt>
      <trkpt lat="43.24022" lon="-0.29342">
        <ele>235.8</ele>
        <time>2020-09-01T14:36:57Z</time>
      </trkpt>
      <trkpt lat="43.23966" lon="-0.29475">
        <ele>235.7</ele>
        <time>2020-09-01T14:37:22Z</time>
      </trkpt>
      <trkpt lat="43.23957" lon="-0.29616">
        <ele>235.5</ele>
        <time>2020-09-01T14:37:42Z</time>
      </trkpt>
      <trkpt lat="43.23985" lon="-0.29745">
        <ele>235.4</ele>
        <time>2020-09-01T14:38:02Z</time>
      </trkpt>
      <trkpt lat="43.24042" lon="-0.29848">
        <ele>234.9</ele>
        <time>2020-09-01T14:38:22Z</time>
      </trkpt>
      <trkpt lat="43.2412" lon="-0.2992">
        <ele>234</ele>
        <time>2020-09-01T14:38:42Z</time>
      </trkpt>
      <trkpt lat="43.24199" lon="-0.29983">
        <ele>233.6</ele>
        <time>2020-09-01T14:39:02Z</time>
      </trkpt>
      <trkpt lat="43.24266" lon="-0.30071">
        <ele>233.4</ele>
        <time>2020-09-01T14:39:22Z</time>
      </trkpt>
      <trkpt lat="43.24335" lon="-0.30183">
        <ele>233.1</ele>
        <time>2020-09-01T14:39:47Z</time>
      </trkpt>
      <trkpt lat="43.24402" lon="-0.30288">
        <ele>232.8</ele>
        <time>2020-09-01T14:40:12Z</time>
      </trkpt>
      <trkpt lat="43.24478" lon="-0.30385">
        <ele>232.2</ele>
        <time>2020-09-01T14:40:37Z</time>
      </trkpt>
      <trkpt lat="43.2448" lon="-0.30528">
        <ele>231.8</ele>
        <time>2020-09-01T14:41:07Z</time>
      </trkpt>
      <trkpt lat="43.24458" lon="-0.30669">
        <ele>231.5</ele>
        <time>2020-09-01T14:41:32Z</time>
      </trkpt>
      <trkpt lat="43.24441" lon="-0.30807">
        <ele>231.4</ele>
        <time>2020-09-01T14:42:02Z</time>
      </trkpt>
      <trkpt lat="43.24418" lon="-0.3096">
        <ele>230.7</ele>
        <time>2020-09-01T14:42:27Z</time>
      </trkpt>
      <trkpt lat="43.24409" lon="-0.31102">
        <ele>229.8</ele>
        <time>2020-09-01T14:42:47Z</time>
      </trkpt>
      <trkpt lat="43.245" lon="-0.31171">
        <ele>229.4</ele>
        <time>2020-09-01T14:43:07Z</time>
      </trkpt>
      <trkpt lat="43.24571" lon="-0.31279">
        <ele>228.3</ele>
        <time>2020-09-01T14:43:27Z</time>
      </trkpt>
      <trkpt lat="43.24634" lon="-0.31386">
        <ele>227.4</ele>
        <time>2020-09-01T14:43:47Z</time>
      </trkpt>
      <trkpt lat="43.24711" lon="-0.31464">
        <ele>224.6</ele>
        <time>2020-09-01T14:44:07Z</time>
      </trkpt>
      <trkpt lat="43.24808" lon="-0.31514">
        <ele>222.6</ele>
        <time>2020-09-01T14:44:27Z</time>
      </trkpt>
      <trkpt lat="43.24878" lon="-0.31617">
        <ele>222.3</ele>
        <time>2020-09-01T14:44:52Z</time>
      </trkpt>
      <trkpt lat="43.24951" lon="-0.31712">
        <ele>221.4</ele>
        <time>2020-09-01T14:45:12Z</time>
      </trkpt>
      <trkpt lat="43.25014" lon="-0.31804">
        <ele>219.5</ele>
        <time>2020-09-01T14:45:32Z</time>
      </trkpt>
      <trkpt lat="43.25076" lon="-0.31927">
        <ele>218.1</ele>
        <time>2020-09-01T14:45:57Z</time>
      </trkpt>
      <trkpt lat="43.25146" lon="-0.32005">
        <ele>218.3</ele>
        <time>2020-09-01T14:46:17Z</time>
      </trkpt>
      <trkpt lat="43.2522" lon="-0.32106">
        <ele>215.2</ele>
        <time>2020-09-01T14:46:38Z</time>
      </trkpt>
      <trkpt lat="43.25289" lon="-0.32211">
        <ele>213.9</ele>
        <time>2020-09-01T14:46:58Z</time>
      </trkpt>
      <trkpt lat="43.25367" lon="-0.32285">
        <ele>213.5</ele>
        <time>2020-09-01T14:47:18Z</time>
      </trkpt>
      <trkpt lat="43.25431" lon="-0.3238">
        <ele>213</ele>
        <time>2020-09-01T14:47:38Z</time>
      </trkpt>
      <trkpt lat="43.25512" lon="-0.32452">
        <ele>212</ele>
        <time>2020-09-01T14:47:58Z</time>
      </trkpt>
      <trkpt lat="43.25595" lon="-0.32395">
        <ele>211.8</ele>
        <time>2020-09-01T14:48:23Z</time>
      </trkpt>
      <trkpt lat="43.25654" lon="-0.32301">
        <ele>211.6</ele>
        <time>2020-09-01T14:49:26Z</time>
      </trkpt>
    </trkseg>
  </trk>
</gpx>